<?xml version="1.0" encoding="UTF-8" standalone="no" ?>
<gpx xmlns="http://www.topografix.com/GPX/1/1" xmlns:xsi="http://www.w3.org/2001/XMLSchema-instance" xsi:schemaLocation="http://www.topografix.com/GPX/1/1 http://www.topografix.com/GPX/1/1/gpx.xsd" version="1.1" creator="VisuGPX - https://www.visugpx.com">
  <metadata>
    <name>Dahouët La Cotentin</name>
    <desc><![CDATA[Dahouët La Cotentin.]]></desc>
  </metadata>
  <trk>
    <name><![CDATA[AVR-27-15 16:21:46]]></name>
    <trkseg>
      <trkpt lat="48.57608" lon="-2.56662">
        <ele>11.67</ele>
        <time>2015-04-27T11:45:07Z</time>
      </trkpt>
      <trkpt lat="48.57632" lon="-2.56647">
        <ele>12.15</ele>
        <time>2015-04-27T11:45:26Z</time>
      </trkpt>
      <trkpt lat="48.57655" lon="-2.56642">
        <ele>14.08</ele>
        <time>2015-04-27T11:45:46Z</time>
      </trkpt>
      <trkpt lat="48.57665" lon="-2.56651">
        <ele>12.15</ele>
        <time>2015-04-27T11:46:00Z</time>
      </trkpt>
      <trkpt lat="48.57666" lon="-2.56655">
        <ele>8.31</ele>
        <time>2015-04-27T11:46:03Z</time>
      </trkpt>
      <trkpt lat="48.57666" lon="-2.56656">
        <ele>13.6</ele>
        <time>2015-04-27T11:46:04Z</time>
      </trkpt>
      <trkpt lat="48.57668" lon="-2.56661">
        <ele>15.04</ele>
        <time>2015-04-27T11:46:08Z</time>
      </trkpt>
      <trkpt lat="48.57684" lon="-2.56682">
        <ele>16.48</ele>
        <time>2015-04-27T11:46:25Z</time>
      </trkpt>
      <trkpt lat="48.57679" lon="-2.56696">
        <ele>20.81</ele>
        <time>2015-04-27T11:46:35Z</time>
      </trkpt>
      <trkpt lat="48.57678" lon="-2.56696">
        <ele>24.65</ele>
        <time>2015-04-27T11:46:36Z</time>
      </trkpt>
      <trkpt lat="48.57677" lon="-2.56697">
        <ele>17.92</ele>
        <time>2015-04-27T11:46:37Z</time>
      </trkpt>
      <trkpt lat="48.57675" lon="-2.56699">
        <ele>17.44</ele>
        <time>2015-04-27T11:46:39Z</time>
      </trkpt>
      <trkpt lat="48.57673" lon="-2.567">
        <ele>24.65</ele>
        <time>2015-04-27T11:46:41Z</time>
      </trkpt>
      <trkpt lat="48.57672" lon="-2.56701">
        <ele>19.36</ele>
        <time>2015-04-27T11:46:42Z</time>
      </trkpt>
      <trkpt lat="48.57652" lon="-2.56717">
        <ele>19.84</ele>
        <time>2015-04-27T11:47:03Z</time>
      </trkpt>
      <trkpt lat="48.57648" lon="-2.56736">
        <ele>21.77</ele>
        <time>2015-04-27T11:47:17Z</time>
      </trkpt>
      <trkpt lat="48.57645" lon="-2.56744">
        <ele>21.77</ele>
        <time>2015-04-27T11:47:23Z</time>
      </trkpt>
      <trkpt lat="48.57643" lon="-2.56755">
        <ele>23.21</ele>
        <time>2015-04-27T11:47:30Z</time>
      </trkpt>
      <trkpt lat="48.57631" lon="-2.56769">
        <ele>23.69</ele>
        <time>2015-04-27T11:47:43Z</time>
      </trkpt>
      <trkpt lat="48.5763" lon="-2.56773">
        <ele>23.21</ele>
        <time>2015-04-27T11:47:48Z</time>
      </trkpt>
      <trkpt lat="48.57637" lon="-2.56775">
        <ele>25.13</ele>
        <time>2015-04-27T11:48:05Z</time>
      </trkpt>
      <trkpt lat="48.57643" lon="-2.56776">
        <ele>26.09</ele>
        <time>2015-04-27T11:49:02Z</time>
      </trkpt>
      <trkpt lat="48.57651" lon="-2.56787">
        <ele>26.57</ele>
        <time>2015-04-27T11:49:17Z</time>
      </trkpt>
      <trkpt lat="48.57667" lon="-2.56811">
        <ele>28.98</ele>
        <time>2015-04-27T11:49:36Z</time>
      </trkpt>
      <trkpt lat="48.57685" lon="-2.56842">
        <ele>31.38</ele>
        <time>2015-04-27T11:49:58Z</time>
      </trkpt>
      <trkpt lat="48.57687" lon="-2.56842">
        <ele>30.9</ele>
        <time>2015-04-27T11:50:00Z</time>
      </trkpt>
      <trkpt lat="48.57693" lon="-2.56839">
        <ele>30.9</ele>
        <time>2015-04-27T11:50:05Z</time>
      </trkpt>
      <trkpt lat="48.577" lon="-2.56833">
        <ele>24.65</ele>
        <time>2015-04-27T11:50:10Z</time>
      </trkpt>
      <trkpt lat="48.57701" lon="-2.56832">
        <ele>32.34</ele>
        <time>2015-04-27T11:50:11Z</time>
      </trkpt>
      <trkpt lat="48.57719" lon="-2.56816">
        <ele>28.98</ele>
        <time>2015-04-27T11:50:28Z</time>
      </trkpt>
      <trkpt lat="48.57728" lon="-2.5681">
        <ele>28.98</ele>
        <time>2015-04-27T11:50:48Z</time>
      </trkpt>
      <trkpt lat="48.57747" lon="-2.56813">
        <ele>29.46</ele>
        <time>2015-04-27T11:51:09Z</time>
      </trkpt>
      <trkpt lat="48.57753" lon="-2.56822">
        <ele>29.46</ele>
        <time>2015-04-27T11:51:20Z</time>
      </trkpt>
      <trkpt lat="48.57754" lon="-2.56827">
        <ele>28.98</ele>
        <time>2015-04-27T11:51:23Z</time>
      </trkpt>
      <trkpt lat="48.5776" lon="-2.56831">
        <ele>29.46</ele>
        <time>2015-04-27T11:51:27Z</time>
      </trkpt>
      <trkpt lat="48.57767" lon="-2.56847">
        <ele>28.98</ele>
        <time>2015-04-27T11:51:40Z</time>
      </trkpt>
      <trkpt lat="48.57774" lon="-2.5686">
        <ele>28.5</ele>
        <time>2015-04-27T11:51:50Z</time>
      </trkpt>
      <trkpt lat="48.57775" lon="-2.56866">
        <ele>28.98</ele>
        <time>2015-04-27T11:51:53Z</time>
      </trkpt>
      <trkpt lat="48.57772" lon="-2.5688">
        <ele>29.46</ele>
        <time>2015-04-27T11:52:00Z</time>
      </trkpt>
      <trkpt lat="48.57768" lon="-2.5689">
        <ele>29.46</ele>
        <time>2015-04-27T11:52:09Z</time>
      </trkpt>
      <trkpt lat="48.57767" lon="-2.56899">
        <ele>29.94</ele>
        <time>2015-04-27T11:52:14Z</time>
      </trkpt>
      <trkpt lat="48.57764" lon="-2.56932">
        <ele>30.42</ele>
        <time>2015-04-27T11:52:34Z</time>
      </trkpt>
      <trkpt lat="48.57758" lon="-2.56959">
        <ele>31.38</ele>
        <time>2015-04-27T11:52:52Z</time>
      </trkpt>
      <trkpt lat="48.57758" lon="-2.56963">
        <ele>30.9</ele>
        <time>2015-04-27T11:52:55Z</time>
      </trkpt>
      <trkpt lat="48.57751" lon="-2.56991">
        <ele>29.94</ele>
        <time>2015-04-27T11:53:13Z</time>
      </trkpt>
      <trkpt lat="48.57751" lon="-2.56994">
        <ele>28.98</ele>
        <time>2015-04-27T11:53:16Z</time>
      </trkpt>
      <trkpt lat="48.57757" lon="-2.57004">
        <ele>28.98</ele>
        <time>2015-04-27T11:53:24Z</time>
      </trkpt>
      <trkpt lat="48.57756" lon="-2.57016">
        <ele>28.5</ele>
        <time>2015-04-27T11:53:31Z</time>
      </trkpt>
      <trkpt lat="48.57765" lon="-2.57033">
        <ele>28.02</ele>
        <time>2015-04-27T11:53:49Z</time>
      </trkpt>
      <trkpt lat="48.57765" lon="-2.57033">
        <ele>28.02</ele>
        <time>2015-04-27T11:53:51Z</time>
      </trkpt>
      <trkpt lat="48.57768" lon="-2.57044">
        <ele>28.98</ele>
        <time>2015-04-27T11:53:58Z</time>
      </trkpt>
      <trkpt lat="48.57786" lon="-2.57063">
        <ele>29.94</ele>
        <time>2015-04-27T11:54:17Z</time>
      </trkpt>
      <trkpt lat="48.57796" lon="-2.57063">
        <ele>28.5</ele>
        <time>2015-04-27T11:54:30Z</time>
      </trkpt>
      <trkpt lat="48.57808" lon="-2.5705">
        <ele>25.13</ele>
        <time>2015-04-27T11:54:44Z</time>
      </trkpt>
      <trkpt lat="48.57813" lon="-2.57046">
        <ele>23.69</ele>
        <time>2015-04-27T11:54:50Z</time>
      </trkpt>
      <trkpt lat="48.57818" lon="-2.57044">
        <ele>23.21</ele>
        <time>2015-04-27T11:54:55Z</time>
      </trkpt>
      <trkpt lat="48.57822" lon="-2.57068">
        <ele>25.61</ele>
        <time>2015-04-27T11:55:16Z</time>
      </trkpt>
      <trkpt lat="48.5782" lon="-2.57086">
        <ele>28.5</ele>
        <time>2015-04-27T11:55:29Z</time>
      </trkpt>
      <trkpt lat="48.57822" lon="-2.57093">
        <ele>28.98</ele>
        <time>2015-04-27T11:55:34Z</time>
      </trkpt>
      <trkpt lat="48.57834" lon="-2.57106">
        <ele>26.09</ele>
        <time>2015-04-27T11:55:51Z</time>
      </trkpt>
      <trkpt lat="48.57849" lon="-2.57111">
        <ele>23.21</ele>
        <time>2015-04-27T11:56:08Z</time>
      </trkpt>
      <trkpt lat="48.57851" lon="-2.57115">
        <ele>23.21</ele>
        <time>2015-04-27T11:56:11Z</time>
      </trkpt>
      <trkpt lat="48.57855" lon="-2.57122">
        <ele>22.73</ele>
        <time>2015-04-27T11:56:16Z</time>
      </trkpt>
      <trkpt lat="48.57857" lon="-2.57125">
        <ele>22.25</ele>
        <time>2015-04-27T11:56:20Z</time>
      </trkpt>
      <trkpt lat="48.57865" lon="-2.57129">
        <ele>21.77</ele>
        <time>2015-04-27T11:56:27Z</time>
      </trkpt>
      <trkpt lat="48.57871" lon="-2.5714">
        <ele>21.29</ele>
        <time>2015-04-27T11:56:35Z</time>
      </trkpt>
      <trkpt lat="48.57872" lon="-2.57146">
        <ele>21.29</ele>
        <time>2015-04-27T11:56:38Z</time>
      </trkpt>
      <trkpt lat="48.57869" lon="-2.57156">
        <ele>21.77</ele>
        <time>2015-04-27T11:56:47Z</time>
      </trkpt>
      <trkpt lat="48.57868" lon="-2.57158">
        <ele>21.77</ele>
        <time>2015-04-27T11:56:49Z</time>
      </trkpt>
      <trkpt lat="48.57863" lon="-2.57163">
        <ele>22.73</ele>
        <time>2015-04-27T11:56:55Z</time>
      </trkpt>
      <trkpt lat="48.57857" lon="-2.57169">
        <ele>23.69</ele>
        <time>2015-04-27T11:57:02Z</time>
      </trkpt>
      <trkpt lat="48.57846" lon="-2.57167">
        <ele>26.57</ele>
        <time>2015-04-27T11:57:17Z</time>
      </trkpt>
      <trkpt lat="48.57844" lon="-2.57167">
        <ele>26.57</ele>
        <time>2015-04-27T11:57:19Z</time>
      </trkpt>
      <trkpt lat="48.57843" lon="-2.57169">
        <ele>27.05</ele>
        <time>2015-04-27T11:57:21Z</time>
      </trkpt>
      <trkpt lat="48.57829" lon="-2.57181">
        <ele>26.57</ele>
        <time>2015-04-27T11:57:38Z</time>
      </trkpt>
      <trkpt lat="48.5781" lon="-2.57189">
        <ele>28.5</ele>
        <time>2015-04-27T11:57:55Z</time>
      </trkpt>
      <trkpt lat="48.57807" lon="-2.57193">
        <ele>28.5</ele>
        <time>2015-04-27T11:57:58Z</time>
      </trkpt>
      <trkpt lat="48.57798" lon="-2.57206">
        <ele>29.94</ele>
        <time>2015-04-27T11:58:17Z</time>
      </trkpt>
      <trkpt lat="48.57793" lon="-2.57216">
        <ele>29.94</ele>
        <time>2015-04-27T11:58:39Z</time>
      </trkpt>
      <trkpt lat="48.57792" lon="-2.57218">
        <ele>30.42</ele>
        <time>2015-04-27T11:59:40Z</time>
      </trkpt>
      <trkpt lat="48.57792" lon="-2.57218">
        <ele>30.42</ele>
        <time>2015-04-27T12:00:02Z</time>
      </trkpt>
      <trkpt lat="48.57795" lon="-2.57212">
        <ele>29.94</ele>
        <time>2015-04-27T12:00:14Z</time>
      </trkpt>
      <trkpt lat="48.57795" lon="-2.57212">
        <ele>29.94</ele>
        <time>2015-04-27T12:00:59Z</time>
      </trkpt>
      <trkpt lat="48.57796" lon="-2.5721">
        <ele>29.94</ele>
        <time>2015-04-27T12:01:51Z</time>
      </trkpt>
      <trkpt lat="48.57798" lon="-2.57207">
        <ele>28.02</ele>
        <time>2015-04-27T12:01:54Z</time>
      </trkpt>
      <trkpt lat="48.57803" lon="-2.57203">
        <ele>28.98</ele>
        <time>2015-04-27T12:02:06Z</time>
      </trkpt>
      <trkpt lat="48.57806" lon="-2.57204">
        <ele>28.98</ele>
        <time>2015-04-27T12:02:09Z</time>
      </trkpt>
      <trkpt lat="48.57811" lon="-2.57191">
        <ele>28.02</ele>
        <time>2015-04-27T12:02:27Z</time>
      </trkpt>
      <trkpt lat="48.5781" lon="-2.57192">
        <ele>28.02</ele>
        <time>2015-04-27T12:02:35Z</time>
      </trkpt>
      <trkpt lat="48.57805" lon="-2.57202">
        <ele>28.02</ele>
        <time>2015-04-27T12:02:42Z</time>
      </trkpt>
      <trkpt lat="48.57795" lon="-2.57206">
        <ele>29.94</ele>
        <time>2015-04-27T12:02:51Z</time>
      </trkpt>
      <trkpt lat="48.5778" lon="-2.57247">
        <ele>29.46</ele>
        <time>2015-04-27T12:03:09Z</time>
      </trkpt>
      <trkpt lat="48.57761" lon="-2.57291">
        <ele>28.02</ele>
        <time>2015-04-27T12:03:29Z</time>
      </trkpt>
      <trkpt lat="48.57734" lon="-2.57293">
        <ele>28.5</ele>
        <time>2015-04-27T12:03:45Z</time>
      </trkpt>
      <trkpt lat="48.57734" lon="-2.57291">
        <ele>28.98</ele>
        <time>2015-04-27T12:03:46Z</time>
      </trkpt>
      <trkpt lat="48.57729" lon="-2.5728">
        <ele>31.86</ele>
        <time>2015-04-27T12:03:53Z</time>
      </trkpt>
      <trkpt lat="48.57717" lon="-2.5728">
        <ele>30.42</ele>
        <time>2015-04-27T12:03:59Z</time>
      </trkpt>
      <trkpt lat="48.5771" lon="-2.57281">
        <ele>28.98</ele>
        <time>2015-04-27T12:04:02Z</time>
      </trkpt>
      <trkpt lat="48.57705" lon="-2.57283">
        <ele>28.98</ele>
        <time>2015-04-27T12:04:06Z</time>
      </trkpt>
      <trkpt lat="48.57684" lon="-2.57304">
        <ele>26.09</ele>
        <time>2015-04-27T12:04:25Z</time>
      </trkpt>
      <trkpt lat="48.57664" lon="-2.57314">
        <ele>26.57</ele>
        <time>2015-04-27T12:04:43Z</time>
      </trkpt>
      <trkpt lat="48.57646" lon="-2.57325">
        <ele>27.53</ele>
        <time>2015-04-27T12:05:02Z</time>
      </trkpt>
      <trkpt lat="48.57642" lon="-2.57327">
        <ele>28.02</ele>
        <time>2015-04-27T12:05:19Z</time>
      </trkpt>
      <trkpt lat="48.57619" lon="-2.57334">
        <ele>29.46</ele>
        <time>2015-04-27T12:05:38Z</time>
      </trkpt>
      <trkpt lat="48.57612" lon="-2.57338">
        <ele>29.94</ele>
        <time>2015-04-27T12:05:44Z</time>
      </trkpt>
      <trkpt lat="48.57601" lon="-2.5734">
        <ele>30.9</ele>
        <time>2015-04-27T12:05:52Z</time>
      </trkpt>
      <trkpt lat="48.57593" lon="-2.57344">
        <ele>32.34</ele>
        <time>2015-04-27T12:05:59Z</time>
      </trkpt>
      <trkpt lat="48.57584" lon="-2.57353">
        <ele>33.3</ele>
        <time>2015-04-27T12:06:07Z</time>
      </trkpt>
      <trkpt lat="48.57578" lon="-2.57358">
        <ele>34.26</ele>
        <time>2015-04-27T12:06:13Z</time>
      </trkpt>
      <trkpt lat="48.57555" lon="-2.57382">
        <ele>32.82</ele>
        <time>2015-04-27T12:06:36Z</time>
      </trkpt>
      <trkpt lat="48.57548" lon="-2.57384">
        <ele>31.86</ele>
        <time>2015-04-27T12:06:42Z</time>
      </trkpt>
      <trkpt lat="48.57541" lon="-2.57392">
        <ele>29.94</ele>
        <time>2015-04-27T12:06:52Z</time>
      </trkpt>
      <trkpt lat="48.5754" lon="-2.57407">
        <ele>28.5</ele>
        <time>2015-04-27T12:07:04Z</time>
      </trkpt>
      <trkpt lat="48.57543" lon="-2.57415">
        <ele>27.05</ele>
        <time>2015-04-27T12:07:11Z</time>
      </trkpt>
      <trkpt lat="48.57554" lon="-2.57439">
        <ele>23.69</ele>
        <time>2015-04-27T12:07:28Z</time>
      </trkpt>
      <trkpt lat="48.57555" lon="-2.57439">
        <ele>23.69</ele>
        <time>2015-04-27T12:07:35Z</time>
      </trkpt>
      <trkpt lat="48.57559" lon="-2.57444">
        <ele>22.73</ele>
        <time>2015-04-27T12:07:43Z</time>
      </trkpt>
      <trkpt lat="48.57563" lon="-2.5745">
        <ele>21.77</ele>
        <time>2015-04-27T12:07:48Z</time>
      </trkpt>
      <trkpt lat="48.57577" lon="-2.57475">
        <ele>18.88</ele>
        <time>2015-04-27T12:08:09Z</time>
      </trkpt>
      <trkpt lat="48.57581" lon="-2.57485">
        <ele>16.96</ele>
        <time>2015-04-27T12:08:16Z</time>
      </trkpt>
      <trkpt lat="48.57584" lon="-2.57487">
        <ele>16.96</ele>
        <time>2015-04-27T12:08:19Z</time>
      </trkpt>
      <trkpt lat="48.57588" lon="-2.57496">
        <ele>15.52</ele>
        <time>2015-04-27T12:08:29Z</time>
      </trkpt>
      <trkpt lat="48.57585" lon="-2.57498">
        <ele>16.48</ele>
        <time>2015-04-27T12:08:36Z</time>
      </trkpt>
      <trkpt lat="48.57566" lon="-2.57497">
        <ele>18.4</ele>
        <time>2015-04-27T12:08:55Z</time>
      </trkpt>
      <trkpt lat="48.57562" lon="-2.57498">
        <ele>18.88</ele>
        <time>2015-04-27T12:09:02Z</time>
      </trkpt>
      <trkpt lat="48.5756" lon="-2.575">
        <ele>18.88</ele>
        <time>2015-04-27T12:09:04Z</time>
      </trkpt>
      <trkpt lat="48.57553" lon="-2.57503">
        <ele>19.36</ele>
        <time>2015-04-27T12:09:10Z</time>
      </trkpt>
      <trkpt lat="48.57534" lon="-2.57498">
        <ele>19.36</ele>
        <time>2015-04-27T12:09:30Z</time>
      </trkpt>
      <trkpt lat="48.57518" lon="-2.57503">
        <ele>21.77</ele>
        <time>2015-04-27T12:09:49Z</time>
      </trkpt>
      <trkpt lat="48.57506" lon="-2.57508">
        <ele>23.69</ele>
        <time>2015-04-27T12:10:06Z</time>
      </trkpt>
      <trkpt lat="48.57488" lon="-2.57517">
        <ele>26.57</ele>
        <time>2015-04-27T12:10:26Z</time>
      </trkpt>
      <trkpt lat="48.57484" lon="-2.57523">
        <ele>27.05</ele>
        <time>2015-04-27T12:10:35Z</time>
      </trkpt>
      <trkpt lat="48.57484" lon="-2.5753">
        <ele>27.53</ele>
        <time>2015-04-27T12:10:39Z</time>
      </trkpt>
      <trkpt lat="48.57481" lon="-2.5755">
        <ele>28.02</ele>
        <time>2015-04-27T12:10:52Z</time>
      </trkpt>
      <trkpt lat="48.5748" lon="-2.57553">
        <ele>28.5</ele>
        <time>2015-04-27T12:10:54Z</time>
      </trkpt>
      <trkpt lat="48.57477" lon="-2.57555">
        <ele>28.02</ele>
        <time>2015-04-27T12:10:57Z</time>
      </trkpt>
      <trkpt lat="48.57463" lon="-2.57561">
        <ele>29.94</ele>
        <time>2015-04-27T12:11:11Z</time>
      </trkpt>
      <trkpt lat="48.57447" lon="-2.57573">
        <ele>31.86</ele>
        <time>2015-04-27T12:11:28Z</time>
      </trkpt>
      <trkpt lat="48.57444" lon="-2.57575">
        <ele>31.86</ele>
        <time>2015-04-27T12:11:32Z</time>
      </trkpt>
      <trkpt lat="48.57433" lon="-2.57587">
        <ele>32.82</ele>
        <time>2015-04-27T12:11:44Z</time>
      </trkpt>
      <trkpt lat="48.57429" lon="-2.57594">
        <ele>27.05</ele>
        <time>2015-04-27T12:11:50Z</time>
      </trkpt>
      <trkpt lat="48.57428" lon="-2.57595">
        <ele>31.86</ele>
        <time>2015-04-27T12:11:51Z</time>
      </trkpt>
      <trkpt lat="48.57409" lon="-2.57604">
        <ele>33.3</ele>
        <time>2015-04-27T12:12:11Z</time>
      </trkpt>
      <trkpt lat="48.574" lon="-2.57605">
        <ele>34.74</ele>
        <time>2015-04-27T12:12:20Z</time>
      </trkpt>
      <trkpt lat="48.57384" lon="-2.57626">
        <ele>35.71</ele>
        <time>2015-04-27T12:12:39Z</time>
      </trkpt>
      <trkpt lat="48.57377" lon="-2.57643">
        <ele>36.67</ele>
        <time>2015-04-27T12:12:51Z</time>
      </trkpt>
      <trkpt lat="48.57376" lon="-2.57649">
        <ele>37.15</ele>
        <time>2015-04-27T12:12:55Z</time>
      </trkpt>
      <trkpt lat="48.5738" lon="-2.57679">
        <ele>37.63</ele>
        <time>2015-04-27T12:13:13Z</time>
      </trkpt>
      <trkpt lat="48.5738" lon="-2.5768">
        <ele>37.15</ele>
        <time>2015-04-27T12:13:14Z</time>
      </trkpt>
      <trkpt lat="48.57377" lon="-2.5769">
        <ele>35.71</ele>
        <time>2015-04-27T12:13:21Z</time>
      </trkpt>
      <trkpt lat="48.57373" lon="-2.57691">
        <ele>36.19</ele>
        <time>2015-04-27T12:13:24Z</time>
      </trkpt>
      <trkpt lat="48.57367" lon="-2.57695">
        <ele>36.67</ele>
        <time>2015-04-27T12:13:31Z</time>
      </trkpt>
      <trkpt lat="48.57362" lon="-2.57696">
        <ele>37.63</ele>
        <time>2015-04-27T12:13:35Z</time>
      </trkpt>
      <trkpt lat="48.57339" lon="-2.57713">
        <ele>39.07</ele>
        <time>2015-04-27T12:13:57Z</time>
      </trkpt>
      <trkpt lat="48.57329" lon="-2.5772">
        <ele>38.59</ele>
        <time>2015-04-27T12:14:06Z</time>
      </trkpt>
      <trkpt lat="48.57326" lon="-2.57725">
        <ele>38.59</ele>
        <time>2015-04-27T12:14:10Z</time>
      </trkpt>
      <trkpt lat="48.57315" lon="-2.57751">
        <ele>39.07</ele>
        <time>2015-04-27T12:14:30Z</time>
      </trkpt>
      <trkpt lat="48.57316" lon="-2.57753">
        <ele>38.59</ele>
        <time>2015-04-27T12:14:32Z</time>
      </trkpt>
      <trkpt lat="48.57316" lon="-2.57761">
        <ele>37.63</ele>
        <time>2015-04-27T12:14:37Z</time>
      </trkpt>
      <trkpt lat="48.57304" lon="-2.57787">
        <ele>39.55</ele>
        <time>2015-04-27T12:14:58Z</time>
      </trkpt>
      <trkpt lat="48.57298" lon="-2.57799">
        <ele>42.44</ele>
        <time>2015-04-27T12:15:14Z</time>
      </trkpt>
      <trkpt lat="48.57294" lon="-2.57808">
        <ele>42.92</ele>
        <time>2015-04-27T12:15:23Z</time>
      </trkpt>
      <trkpt lat="48.57291" lon="-2.57821">
        <ele>44.84</ele>
        <time>2015-04-27T12:15:34Z</time>
      </trkpt>
      <trkpt lat="48.57289" lon="-2.57824">
        <ele>44.36</ele>
        <time>2015-04-27T12:15:37Z</time>
      </trkpt>
      <trkpt lat="48.57285" lon="-2.57829">
        <ele>44.84</ele>
        <time>2015-04-27T12:15:43Z</time>
      </trkpt>
      <trkpt lat="48.57282" lon="-2.57834">
        <ele>43.4</ele>
        <time>2015-04-27T12:15:48Z</time>
      </trkpt>
      <trkpt lat="48.57279" lon="-2.57836">
        <ele>42.92</ele>
        <time>2015-04-27T12:15:52Z</time>
      </trkpt>
      <trkpt lat="48.57271" lon="-2.57851">
        <ele>41.47</ele>
        <time>2015-04-27T12:16:04Z</time>
      </trkpt>
      <trkpt lat="48.57268" lon="-2.57858">
        <ele>40.51</ele>
        <time>2015-04-27T12:16:09Z</time>
      </trkpt>
      <trkpt lat="48.57263" lon="-2.57871">
        <ele>40.51</ele>
        <time>2015-04-27T12:16:17Z</time>
      </trkpt>
      <trkpt lat="48.57258" lon="-2.57888">
        <ele>43.88</ele>
        <time>2015-04-27T12:16:30Z</time>
      </trkpt>
      <trkpt lat="48.57255" lon="-2.579">
        <ele>43.4</ele>
        <time>2015-04-27T12:16:40Z</time>
      </trkpt>
      <trkpt lat="48.5725" lon="-2.57918">
        <ele>45.32</ele>
        <time>2015-04-27T12:17:00Z</time>
      </trkpt>
      <trkpt lat="48.57247" lon="-2.57923">
        <ele>47.24</ele>
        <time>2015-04-27T12:17:13Z</time>
      </trkpt>
      <trkpt lat="48.57239" lon="-2.57933">
        <ele>48.68</ele>
        <time>2015-04-27T12:17:23Z</time>
      </trkpt>
      <trkpt lat="48.57235" lon="-2.57941">
        <ele>48.2</ele>
        <time>2015-04-27T12:17:44Z</time>
      </trkpt>
      <trkpt lat="48.57233" lon="-2.57941">
        <ele>47.72</ele>
        <time>2015-04-27T12:17:55Z</time>
      </trkpt>
      <trkpt lat="48.57229" lon="-2.57943">
        <ele>47.24</ele>
        <time>2015-04-27T12:18:19Z</time>
      </trkpt>
      <trkpt lat="48.57222" lon="-2.57946">
        <ele>47.24</ele>
        <time>2015-04-27T12:18:27Z</time>
      </trkpt>
      <trkpt lat="48.57215" lon="-2.57958">
        <ele>46.28</ele>
        <time>2015-04-27T12:18:37Z</time>
      </trkpt>
      <trkpt lat="48.57209" lon="-2.57969">
        <ele>45.8</ele>
        <time>2015-04-27T12:18:44Z</time>
      </trkpt>
      <trkpt lat="48.57205" lon="-2.57978">
        <ele>46.28</ele>
        <time>2015-04-27T12:18:50Z</time>
      </trkpt>
      <trkpt lat="48.57204" lon="-2.57981">
        <ele>46.76</ele>
        <time>2015-04-27T12:18:52Z</time>
      </trkpt>
      <trkpt lat="48.57195" lon="-2.57995">
        <ele>46.76</ele>
        <time>2015-04-27T12:19:04Z</time>
      </trkpt>
      <trkpt lat="48.57193" lon="-2.57997">
        <ele>45.8</ele>
        <time>2015-04-27T12:19:06Z</time>
      </trkpt>
      <trkpt lat="48.5719" lon="-2.58001">
        <ele>45.32</ele>
        <time>2015-04-27T12:19:11Z</time>
      </trkpt>
      <trkpt lat="48.57183" lon="-2.58011">
        <ele>41.95</ele>
        <time>2015-04-27T12:19:23Z</time>
      </trkpt>
      <trkpt lat="48.57178" lon="-2.58013">
        <ele>40.99</ele>
        <time>2015-04-27T12:19:35Z</time>
      </trkpt>
      <trkpt lat="48.57172" lon="-2.5802">
        <ele>38.11</ele>
        <time>2015-04-27T12:19:54Z</time>
      </trkpt>
      <trkpt lat="48.57165" lon="-2.5802">
        <ele>34.74</ele>
        <time>2015-04-27T12:20:22Z</time>
      </trkpt>
      <trkpt lat="48.57163" lon="-2.58019">
        <ele>35.23</ele>
        <time>2015-04-27T12:20:25Z</time>
      </trkpt>
      <trkpt lat="48.57155" lon="-2.58012">
        <ele>32.34</ele>
        <time>2015-04-27T12:20:37Z</time>
      </trkpt>
      <trkpt lat="48.57152" lon="-2.58007">
        <ele>31.38</ele>
        <time>2015-04-27T12:20:42Z</time>
      </trkpt>
      <trkpt lat="48.57143" lon="-2.57997">
        <ele>28.98</ele>
        <time>2015-04-27T12:20:56Z</time>
      </trkpt>
      <trkpt lat="48.5713" lon="-2.57985">
        <ele>25.13</ele>
        <time>2015-04-27T12:21:14Z</time>
      </trkpt>
      <trkpt lat="48.57127" lon="-2.57984">
        <ele>24.65</ele>
        <time>2015-04-27T12:21:22Z</time>
      </trkpt>
      <trkpt lat="48.57123" lon="-2.57977">
        <ele>22.25</ele>
        <time>2015-04-27T12:21:29Z</time>
      </trkpt>
      <trkpt lat="48.57117" lon="-2.57965">
        <ele>19.36</ele>
        <time>2015-04-27T12:21:42Z</time>
      </trkpt>
      <trkpt lat="48.57101" lon="-2.57952">
        <ele>16.96</ele>
        <time>2015-04-27T12:22:05Z</time>
      </trkpt>
      <trkpt lat="48.57095" lon="-2.57944">
        <ele>14.08</ele>
        <time>2015-04-27T12:22:25Z</time>
      </trkpt>
      <trkpt lat="48.57085" lon="-2.57934">
        <ele>11.19</ele>
        <time>2015-04-27T12:22:41Z</time>
      </trkpt>
      <trkpt lat="48.5708" lon="-2.5793">
        <ele>11.19</ele>
        <time>2015-04-27T12:22:46Z</time>
      </trkpt>
      <trkpt lat="48.57073" lon="-2.57919">
        <ele>12.15</ele>
        <time>2015-04-27T12:22:56Z</time>
      </trkpt>
      <trkpt lat="48.57072" lon="-2.57914">
        <ele>12.63</ele>
        <time>2015-04-27T12:22:59Z</time>
      </trkpt>
      <trkpt lat="48.57063" lon="-2.57908">
        <ele>13.12</ele>
        <time>2015-04-27T12:23:09Z</time>
      </trkpt>
      <trkpt lat="48.57057" lon="-2.57911">
        <ele>14.56</ele>
        <time>2015-04-27T12:23:29Z</time>
      </trkpt>
      <trkpt lat="48.57054" lon="-2.5791">
        <ele>14.56</ele>
        <time>2015-04-27T12:24:02Z</time>
      </trkpt>
      <trkpt lat="48.57053" lon="-2.57915">
        <ele>14.56</ele>
        <time>2015-04-27T12:24:20Z</time>
      </trkpt>
      <trkpt lat="48.57052" lon="-2.57915">
        <ele>15.04</ele>
        <time>2015-04-27T12:25:08Z</time>
      </trkpt>
      <trkpt lat="48.57051" lon="-2.57917">
        <ele>15.04</ele>
        <time>2015-04-27T12:25:39Z</time>
      </trkpt>
      <trkpt lat="48.57048" lon="-2.57917">
        <ele>15.52</ele>
        <time>2015-04-27T12:25:50Z</time>
      </trkpt>
      <trkpt lat="48.57044" lon="-2.57917">
        <ele>16</ele>
        <time>2015-04-27T12:26:22Z</time>
      </trkpt>
      <trkpt lat="48.57043" lon="-2.57917">
        <ele>15.52</ele>
        <time>2015-04-27T12:26:23Z</time>
      </trkpt>
      <trkpt lat="48.57029" lon="-2.57923">
        <ele>17.44</ele>
        <time>2015-04-27T12:26:39Z</time>
      </trkpt>
      <trkpt lat="48.57018" lon="-2.57926">
        <ele>17.92</ele>
        <time>2015-04-27T12:26:47Z</time>
      </trkpt>
      <trkpt lat="48.57007" lon="-2.57928">
        <ele>18.4</ele>
        <time>2015-04-27T12:26:55Z</time>
      </trkpt>
      <trkpt lat="48.56997" lon="-2.57932">
        <ele>12.15</ele>
        <time>2015-04-27T12:27:03Z</time>
      </trkpt>
      <trkpt lat="48.56996" lon="-2.57932">
        <ele>16</ele>
        <time>2015-04-27T12:27:04Z</time>
      </trkpt>
      <trkpt lat="48.56994" lon="-2.57934">
        <ele>17.92</ele>
        <time>2015-04-27T12:27:06Z</time>
      </trkpt>
      <trkpt lat="48.56971" lon="-2.57945">
        <ele>20.32</ele>
        <time>2015-04-27T12:27:28Z</time>
      </trkpt>
      <trkpt lat="48.56956" lon="-2.57947">
        <ele>22.25</ele>
        <time>2015-04-27T12:27:41Z</time>
      </trkpt>
      <trkpt lat="48.56952" lon="-2.57949">
        <ele>23.21</ele>
        <time>2015-04-27T12:27:45Z</time>
      </trkpt>
      <trkpt lat="48.56928" lon="-2.5795">
        <ele>26.09</ele>
        <time>2015-04-27T12:28:09Z</time>
      </trkpt>
      <trkpt lat="48.56911" lon="-2.57947">
        <ele>28.98</ele>
        <time>2015-04-27T12:28:26Z</time>
      </trkpt>
      <trkpt lat="48.569" lon="-2.57947">
        <ele>30.9</ele>
        <time>2015-04-27T12:28:37Z</time>
      </trkpt>
      <trkpt lat="48.56881" lon="-2.57948">
        <ele>34.26</ele>
        <time>2015-04-27T12:28:58Z</time>
      </trkpt>
      <trkpt lat="48.56859" lon="-2.57956">
        <ele>34.74</ele>
        <time>2015-04-27T12:29:18Z</time>
      </trkpt>
      <trkpt lat="48.56839" lon="-2.57959">
        <ele>35.23</ele>
        <time>2015-04-27T12:29:34Z</time>
      </trkpt>
      <trkpt lat="48.56818" lon="-2.5796">
        <ele>37.15</ele>
        <time>2015-04-27T12:29:54Z</time>
      </trkpt>
      <trkpt lat="48.56813" lon="-2.57969">
        <ele>38.11</ele>
        <time>2015-04-27T12:30:06Z</time>
      </trkpt>
      <trkpt lat="48.56814" lon="-2.57977">
        <ele>38.11</ele>
        <time>2015-04-27T12:30:11Z</time>
      </trkpt>
      <trkpt lat="48.56809" lon="-2.58014">
        <ele>35.71</ele>
        <time>2015-04-27T12:30:33Z</time>
      </trkpt>
      <trkpt lat="48.56808" lon="-2.58023">
        <ele>35.23</ele>
        <time>2015-04-27T12:30:39Z</time>
      </trkpt>
      <trkpt lat="48.56806" lon="-2.5803">
        <ele>35.23</ele>
        <time>2015-04-27T12:30:43Z</time>
      </trkpt>
      <trkpt lat="48.56806" lon="-2.58033">
        <ele>34.74</ele>
        <time>2015-04-27T12:30:45Z</time>
      </trkpt>
      <trkpt lat="48.56806" lon="-2.58077">
        <ele>32.34</ele>
        <time>2015-04-27T12:31:09Z</time>
      </trkpt>
      <trkpt lat="48.56803" lon="-2.58098">
        <ele>31.38</ele>
        <time>2015-04-27T12:31:24Z</time>
      </trkpt>
      <trkpt lat="48.56802" lon="-2.58101">
        <ele>31.38</ele>
        <time>2015-04-27T12:31:26Z</time>
      </trkpt>
      <trkpt lat="48.56802" lon="-2.58104">
        <ele>31.38</ele>
        <time>2015-04-27T12:31:28Z</time>
      </trkpt>
      <trkpt lat="48.56803" lon="-2.5811">
        <ele>30.9</ele>
        <time>2015-04-27T12:31:32Z</time>
      </trkpt>
      <trkpt lat="48.56804" lon="-2.58115">
        <ele>30.9</ele>
        <time>2015-04-27T12:31:35Z</time>
      </trkpt>
      <trkpt lat="48.56804" lon="-2.58125">
        <ele>29.94</ele>
        <time>2015-04-27T12:31:41Z</time>
      </trkpt>
      <trkpt lat="48.56801" lon="-2.5816">
        <ele>28.98</ele>
        <time>2015-04-27T12:32:00Z</time>
      </trkpt>
      <trkpt lat="48.56801" lon="-2.58163">
        <ele>29.46</ele>
        <time>2015-04-27T12:32:02Z</time>
      </trkpt>
      <trkpt lat="48.568" lon="-2.58168">
        <ele>29.46</ele>
        <time>2015-04-27T12:32:05Z</time>
      </trkpt>
      <trkpt lat="48.56797" lon="-2.58177">
        <ele>29.94</ele>
        <time>2015-04-27T12:32:11Z</time>
      </trkpt>
      <trkpt lat="48.56802" lon="-2.58183">
        <ele>30.42</ele>
        <time>2015-04-27T12:32:18Z</time>
      </trkpt>
      <trkpt lat="48.56824" lon="-2.58186">
        <ele>30.42</ele>
        <time>2015-04-27T12:32:43Z</time>
      </trkpt>
      <trkpt lat="48.56836" lon="-2.58185">
        <ele>33.3</ele>
        <time>2015-04-27T12:33:00Z</time>
      </trkpt>
      <trkpt lat="48.56845" lon="-2.58176">
        <ele>35.23</ele>
        <time>2015-04-27T12:33:17Z</time>
      </trkpt>
      <trkpt lat="48.5685" lon="-2.58169">
        <ele>36.67</ele>
        <time>2015-04-27T12:33:24Z</time>
      </trkpt>
      <trkpt lat="48.56872" lon="-2.58158">
        <ele>35.71</ele>
        <time>2015-04-27T12:33:46Z</time>
      </trkpt>
      <trkpt lat="48.56894" lon="-2.58162">
        <ele>34.74</ele>
        <time>2015-04-27T12:34:06Z</time>
      </trkpt>
      <trkpt lat="48.569" lon="-2.58164">
        <ele>35.23</ele>
        <time>2015-04-27T12:34:31Z</time>
      </trkpt>
      <trkpt lat="48.56905" lon="-2.58168">
        <ele>35.23</ele>
        <time>2015-04-27T12:34:49Z</time>
      </trkpt>
      <trkpt lat="48.56908" lon="-2.58174">
        <ele>36.67</ele>
        <time>2015-04-27T12:35:12Z</time>
      </trkpt>
      <trkpt lat="48.56912" lon="-2.58189">
        <ele>35.23</ele>
        <time>2015-04-27T12:35:34Z</time>
      </trkpt>
      <trkpt lat="48.56918" lon="-2.58203">
        <ele>34.26</ele>
        <time>2015-04-27T12:35:53Z</time>
      </trkpt>
      <trkpt lat="48.56916" lon="-2.58231">
        <ele>34.26</ele>
        <time>2015-04-27T12:36:12Z</time>
      </trkpt>
      <trkpt lat="48.56915" lon="-2.58235">
        <ele>34.74</ele>
        <time>2015-04-27T12:36:14Z</time>
      </trkpt>
      <trkpt lat="48.56905" lon="-2.58251">
        <ele>35.23</ele>
        <time>2015-04-27T12:36:29Z</time>
      </trkpt>
      <trkpt lat="48.56898" lon="-2.58273">
        <ele>38.11</ele>
        <time>2015-04-27T12:36:48Z</time>
      </trkpt>
      <trkpt lat="48.56894" lon="-2.58283">
        <ele>40.99</ele>
        <time>2015-04-27T12:36:58Z</time>
      </trkpt>
      <trkpt lat="48.56884" lon="-2.58297">
        <ele>42.92</ele>
        <time>2015-04-27T12:37:16Z</time>
      </trkpt>
      <trkpt lat="48.56876" lon="-2.58317">
        <ele>43.88</ele>
        <time>2015-04-27T12:37:32Z</time>
      </trkpt>
      <trkpt lat="48.56875" lon="-2.58323">
        <ele>43.88</ele>
        <time>2015-04-27T12:37:36Z</time>
      </trkpt>
      <trkpt lat="48.56872" lon="-2.58346">
        <ele>43.4</ele>
        <time>2015-04-27T12:37:50Z</time>
      </trkpt>
      <trkpt lat="48.56871" lon="-2.58355">
        <ele>42.92</ele>
        <time>2015-04-27T12:37:55Z</time>
      </trkpt>
      <trkpt lat="48.56868" lon="-2.58382">
        <ele>41.47</ele>
        <time>2015-04-27T12:38:11Z</time>
      </trkpt>
      <trkpt lat="48.56864" lon="-2.58406">
        <ele>38.11</ele>
        <time>2015-04-27T12:38:26Z</time>
      </trkpt>
      <trkpt lat="48.56858" lon="-2.58421">
        <ele>35.23</ele>
        <time>2015-04-27T12:38:37Z</time>
      </trkpt>
      <trkpt lat="48.56844" lon="-2.58438">
        <ele>32.34</ele>
        <time>2015-04-27T12:38:54Z</time>
      </trkpt>
      <trkpt lat="48.56827" lon="-2.58445">
        <ele>31.38</ele>
        <time>2015-04-27T12:39:08Z</time>
      </trkpt>
      <trkpt lat="48.56825" lon="-2.58446">
        <ele>25.61</ele>
        <time>2015-04-27T12:39:11Z</time>
      </trkpt>
      <trkpt lat="48.56824" lon="-2.58446">
        <ele>31.38</ele>
        <time>2015-04-27T12:39:12Z</time>
      </trkpt>
      <trkpt lat="48.56817" lon="-2.58446">
        <ele>27.53</ele>
        <time>2015-04-27T12:39:19Z</time>
      </trkpt>
      <trkpt lat="48.56816" lon="-2.58446">
        <ele>33.3</ele>
        <time>2015-04-27T12:39:20Z</time>
      </trkpt>
      <trkpt lat="48.56815" lon="-2.58447">
        <ele>36.67</ele>
        <time>2015-04-27T12:39:22Z</time>
      </trkpt>
      <trkpt lat="48.56813" lon="-2.58448">
        <ele>32.82</ele>
        <time>2015-04-27T12:39:24Z</time>
      </trkpt>
      <trkpt lat="48.56812" lon="-2.58448">
        <ele>32.82</ele>
        <time>2015-04-27T12:39:25Z</time>
      </trkpt>
      <trkpt lat="48.56804" lon="-2.58451">
        <ele>40.51</ele>
        <time>2015-04-27T12:39:32Z</time>
      </trkpt>
      <trkpt lat="48.56803" lon="-2.58451">
        <ele>34.74</ele>
        <time>2015-04-27T12:39:33Z</time>
      </trkpt>
      <trkpt lat="48.56786" lon="-2.5847">
        <ele>35.71</ele>
        <time>2015-04-27T12:39:54Z</time>
      </trkpt>
      <trkpt lat="48.56782" lon="-2.58478">
        <ele>36.19</ele>
        <time>2015-04-27T12:40:00Z</time>
      </trkpt>
      <trkpt lat="48.56766" lon="-2.58506">
        <ele>32.82</ele>
        <time>2015-04-27T12:40:21Z</time>
      </trkpt>
      <trkpt lat="48.56749" lon="-2.58535">
        <ele>30.9</ele>
        <time>2015-04-27T12:40:42Z</time>
      </trkpt>
      <trkpt lat="48.56745" lon="-2.58542">
        <ele>30.9</ele>
        <time>2015-04-27T12:40:47Z</time>
      </trkpt>
      <trkpt lat="48.56741" lon="-2.58564">
        <ele>32.34</ele>
        <time>2015-04-27T12:41:00Z</time>
      </trkpt>
      <trkpt lat="48.56735" lon="-2.58582">
        <ele>34.74</ele>
        <time>2015-04-27T12:41:19Z</time>
      </trkpt>
      <trkpt lat="48.56731" lon="-2.58596">
        <ele>37.15</ele>
        <time>2015-04-27T12:41:33Z</time>
      </trkpt>
      <trkpt lat="48.56726" lon="-2.58601">
        <ele>37.63</ele>
        <time>2015-04-27T12:41:38Z</time>
      </trkpt>
      <trkpt lat="48.56713" lon="-2.58623">
        <ele>37.63</ele>
        <time>2015-04-27T12:42:00Z</time>
      </trkpt>
      <trkpt lat="48.56713" lon="-2.58623">
        <ele>37.63</ele>
        <time>2015-04-27T12:42:23Z</time>
      </trkpt>
      <trkpt lat="48.56708" lon="-2.58635">
        <ele>37.15</ele>
        <time>2015-04-27T12:42:45Z</time>
      </trkpt>
      <trkpt lat="48.567" lon="-2.58646">
        <ele>38.11</ele>
        <time>2015-04-27T12:42:55Z</time>
      </trkpt>
      <trkpt lat="48.56676" lon="-2.58656">
        <ele>38.59</ele>
        <time>2015-04-27T12:43:17Z</time>
      </trkpt>
      <trkpt lat="48.56664" lon="-2.58664">
        <ele>38.11</ele>
        <time>2015-04-27T12:43:39Z</time>
      </trkpt>
      <trkpt lat="48.56644" lon="-2.58682">
        <ele>36.67</ele>
        <time>2015-04-27T12:43:59Z</time>
      </trkpt>
      <trkpt lat="48.56636" lon="-2.58695">
        <ele>35.23</ele>
        <time>2015-04-27T12:44:09Z</time>
      </trkpt>
      <trkpt lat="48.56622" lon="-2.5871">
        <ele>32.82</ele>
        <time>2015-04-27T12:44:26Z</time>
      </trkpt>
      <trkpt lat="48.56616" lon="-2.5872">
        <ele>30.42</ele>
        <time>2015-04-27T12:44:39Z</time>
      </trkpt>
      <trkpt lat="48.566" lon="-2.58741">
        <ele>28.02</ele>
        <time>2015-04-27T12:44:57Z</time>
      </trkpt>
      <trkpt lat="48.5659" lon="-2.58752">
        <ele>28.98</ele>
        <time>2015-04-27T12:45:09Z</time>
      </trkpt>
      <trkpt lat="48.56582" lon="-2.58772">
        <ele>25.61</ele>
        <time>2015-04-27T12:45:23Z</time>
      </trkpt>
      <trkpt lat="48.56563" lon="-2.58795">
        <ele>27.05</ele>
        <time>2015-04-27T12:45:45Z</time>
      </trkpt>
      <trkpt lat="48.56549" lon="-2.58825">
        <ele>25.13</ele>
        <time>2015-04-27T12:46:06Z</time>
      </trkpt>
      <trkpt lat="48.56529" lon="-2.58816">
        <ele>21.77</ele>
        <time>2015-04-27T12:46:28Z</time>
      </trkpt>
      <trkpt lat="48.56529" lon="-2.5881">
        <ele>21.77</ele>
        <time>2015-04-27T12:46:33Z</time>
      </trkpt>
      <trkpt lat="48.5652" lon="-2.58787">
        <ele>21.29</ele>
        <time>2015-04-27T12:46:48Z</time>
      </trkpt>
      <trkpt lat="48.56518" lon="-2.58772">
        <ele>21.29</ele>
        <time>2015-04-27T12:46:57Z</time>
      </trkpt>
      <trkpt lat="48.56514" lon="-2.58763">
        <ele>21.29</ele>
        <time>2015-04-27T12:47:15Z</time>
      </trkpt>
      <trkpt lat="48.56513" lon="-2.58762">
        <ele>21.29</ele>
        <time>2015-04-27T12:47:26Z</time>
      </trkpt>
      <trkpt lat="48.56505" lon="-2.58765">
        <ele>20.81</ele>
        <time>2015-04-27T12:47:33Z</time>
      </trkpt>
      <trkpt lat="48.56499" lon="-2.58795">
        <ele>19.36</ele>
        <time>2015-04-27T12:47:50Z</time>
      </trkpt>
      <trkpt lat="48.56476" lon="-2.58798">
        <ele>23.21</ele>
        <time>2015-04-27T12:48:11Z</time>
      </trkpt>
      <trkpt lat="48.56459" lon="-2.58806">
        <ele>24.65</ele>
        <time>2015-04-27T12:48:29Z</time>
      </trkpt>
      <trkpt lat="48.56448" lon="-2.58819">
        <ele>23.21</ele>
        <time>2015-04-27T12:48:42Z</time>
      </trkpt>
      <trkpt lat="48.5643" lon="-2.58819">
        <ele>26.09</ele>
        <time>2015-04-27T12:49:01Z</time>
      </trkpt>
      <trkpt lat="48.56423" lon="-2.58819">
        <ele>27.53</ele>
        <time>2015-04-27T12:49:10Z</time>
      </trkpt>
      <trkpt lat="48.56406" lon="-2.58827">
        <ele>28.98</ele>
        <time>2015-04-27T12:49:29Z</time>
      </trkpt>
      <trkpt lat="48.56392" lon="-2.58833">
        <ele>31.38</ele>
        <time>2015-04-27T12:49:48Z</time>
      </trkpt>
      <trkpt lat="48.5639" lon="-2.58832">
        <ele>30.9</ele>
        <time>2015-04-27T12:49:50Z</time>
      </trkpt>
      <trkpt lat="48.56372" lon="-2.58823">
        <ele>33.3</ele>
        <time>2015-04-27T12:50:13Z</time>
      </trkpt>
      <trkpt lat="48.56364" lon="-2.58816">
        <ele>36.67</ele>
        <time>2015-04-27T12:50:30Z</time>
      </trkpt>
      <trkpt lat="48.56363" lon="-2.58813">
        <ele>37.15</ele>
        <time>2015-04-27T12:50:36Z</time>
      </trkpt>
      <trkpt lat="48.56371" lon="-2.58808">
        <ele>39.55</ele>
        <time>2015-04-27T12:50:53Z</time>
      </trkpt>
      <trkpt lat="48.5637" lon="-2.588">
        <ele>42.44</ele>
        <time>2015-04-27T12:51:13Z</time>
      </trkpt>
      <trkpt lat="48.56365" lon="-2.58794">
        <ele>44.84</ele>
        <time>2015-04-27T12:51:31Z</time>
      </trkpt>
      <trkpt lat="48.5636" lon="-2.58794">
        <ele>47.24</ele>
        <time>2015-04-27T12:51:46Z</time>
      </trkpt>
      <trkpt lat="48.56342" lon="-2.58806">
        <ele>50.61</ele>
        <time>2015-04-27T12:52:08Z</time>
      </trkpt>
      <trkpt lat="48.56329" lon="-2.58818">
        <ele>53.01</ele>
        <time>2015-04-27T12:52:27Z</time>
      </trkpt>
      <trkpt lat="48.56323" lon="-2.58825">
        <ele>52.53</ele>
        <time>2015-04-27T12:52:44Z</time>
      </trkpt>
      <trkpt lat="48.56323" lon="-2.58825">
        <ele>51.09</ele>
        <time>2015-04-27T12:53:16Z</time>
      </trkpt>
      <trkpt lat="48.56322" lon="-2.58826">
        <ele>50.61</ele>
        <time>2015-04-27T12:53:45Z</time>
      </trkpt>
      <trkpt lat="48.56322" lon="-2.58826">
        <ele>51.57</ele>
        <time>2015-04-27T12:54:41Z</time>
      </trkpt>
      <trkpt lat="48.56321" lon="-2.58826">
        <ele>50.61</ele>
        <time>2015-04-27T12:55:08Z</time>
      </trkpt>
      <trkpt lat="48.56321" lon="-2.58827">
        <ele>51.57</ele>
        <time>2015-04-27T12:55:35Z</time>
      </trkpt>
      <trkpt lat="48.5632" lon="-2.58823">
        <ele>50.61</ele>
        <time>2015-04-27T12:55:54Z</time>
      </trkpt>
      <trkpt lat="48.5632" lon="-2.58823">
        <ele>47.24</ele>
        <time>2015-04-27T12:56:01Z</time>
      </trkpt>
      <trkpt lat="48.5632" lon="-2.58823">
        <ele>51.57</ele>
        <time>2015-04-27T12:56:02Z</time>
      </trkpt>
      <trkpt lat="48.5632" lon="-2.58824">
        <ele>51.09</ele>
        <time>2015-04-27T12:56:29Z</time>
      </trkpt>
      <trkpt lat="48.56318" lon="-2.58832">
        <ele>51.09</ele>
        <time>2015-04-27T12:56:33Z</time>
      </trkpt>
      <trkpt lat="48.5631" lon="-2.58853">
        <ele>48.68</ele>
        <time>2015-04-27T12:56:51Z</time>
      </trkpt>
      <trkpt lat="48.5631" lon="-2.58853">
        <ele>48.68</ele>
        <time>2015-04-27T12:56:52Z</time>
      </trkpt>
      <trkpt lat="48.56306" lon="-2.58855">
        <ele>48.2</ele>
        <time>2015-04-27T12:56:56Z</time>
      </trkpt>
      <trkpt lat="48.5629" lon="-2.58877">
        <ele>44.36</ele>
        <time>2015-04-27T12:57:18Z</time>
      </trkpt>
      <trkpt lat="48.56283" lon="-2.58887">
        <ele>44.36</ele>
        <time>2015-04-27T12:57:27Z</time>
      </trkpt>
      <trkpt lat="48.5628" lon="-2.58894">
        <ele>43.88</ele>
        <time>2015-04-27T12:57:32Z</time>
      </trkpt>
      <trkpt lat="48.56277" lon="-2.58901">
        <ele>42.92</ele>
        <time>2015-04-27T12:57:52Z</time>
      </trkpt>
      <trkpt lat="48.56269" lon="-2.58924">
        <ele>41.47</ele>
        <time>2015-04-27T12:58:29Z</time>
      </trkpt>
      <trkpt lat="48.56255" lon="-2.58916">
        <ele>43.88</ele>
        <time>2015-04-27T12:58:48Z</time>
      </trkpt>
      <trkpt lat="48.56249" lon="-2.58913">
        <ele>45.8</ele>
        <time>2015-04-27T12:58:58Z</time>
      </trkpt>
      <trkpt lat="48.56248" lon="-2.58914">
        <ele>46.76</ele>
        <time>2015-04-27T12:59:00Z</time>
      </trkpt>
      <trkpt lat="48.56247" lon="-2.58915">
        <ele>47.24</ele>
        <time>2015-04-27T12:59:01Z</time>
      </trkpt>
      <trkpt lat="48.56245" lon="-2.58915">
        <ele>47.24</ele>
        <time>2015-04-27T12:59:06Z</time>
      </trkpt>
      <trkpt lat="48.56235" lon="-2.58916">
        <ele>47.24</ele>
        <time>2015-04-27T12:59:15Z</time>
      </trkpt>
      <trkpt lat="48.56229" lon="-2.58918">
        <ele>48.68</ele>
        <time>2015-04-27T12:59:20Z</time>
      </trkpt>
      <trkpt lat="48.56228" lon="-2.58919">
        <ele>49.65</ele>
        <time>2015-04-27T12:59:22Z</time>
      </trkpt>
      <trkpt lat="48.56224" lon="-2.58923">
        <ele>49.16</ele>
        <time>2015-04-27T12:59:26Z</time>
      </trkpt>
      <trkpt lat="48.56212" lon="-2.58937">
        <ele>51.57</ele>
        <time>2015-04-27T12:59:42Z</time>
      </trkpt>
      <trkpt lat="48.562" lon="-2.58953">
        <ele>53.01</ele>
        <time>2015-04-27T13:00:01Z</time>
      </trkpt>
      <trkpt lat="48.56198" lon="-2.58956">
        <ele>53.97</ele>
        <time>2015-04-27T13:00:04Z</time>
      </trkpt>
      <trkpt lat="48.56191" lon="-2.58965">
        <ele>53.97</ele>
        <time>2015-04-27T13:00:13Z</time>
      </trkpt>
      <trkpt lat="48.56188" lon="-2.58979">
        <ele>52.53</ele>
        <time>2015-04-27T13:00:28Z</time>
      </trkpt>
      <trkpt lat="48.56187" lon="-2.58984">
        <ele>50.61</ele>
        <time>2015-04-27T13:00:47Z</time>
      </trkpt>
      <trkpt lat="48.56184" lon="-2.58997">
        <ele>49.16</ele>
        <time>2015-04-27T13:01:07Z</time>
      </trkpt>
      <trkpt lat="48.56186" lon="-2.59004">
        <ele>47.24</ele>
        <time>2015-04-27T13:01:13Z</time>
      </trkpt>
      <trkpt lat="48.56192" lon="-2.5902">
        <ele>43.88</ele>
        <time>2015-04-27T13:01:26Z</time>
      </trkpt>
      <trkpt lat="48.56193" lon="-2.59028">
        <ele>42.92</ele>
        <time>2015-04-27T13:01:32Z</time>
      </trkpt>
      <trkpt lat="48.56186" lon="-2.59046">
        <ele>42.92</ele>
        <time>2015-04-27T13:01:49Z</time>
      </trkpt>
      <trkpt lat="48.56179" lon="-2.59067">
        <ele>41.47</ele>
        <time>2015-04-27T13:02:09Z</time>
      </trkpt>
      <trkpt lat="48.56175" lon="-2.59092">
        <ele>38.59</ele>
        <time>2015-04-27T13:02:23Z</time>
      </trkpt>
      <trkpt lat="48.56176" lon="-2.59098">
        <ele>38.11</ele>
        <time>2015-04-27T13:02:26Z</time>
      </trkpt>
      <trkpt lat="48.5618" lon="-2.59114">
        <ele>36.67</ele>
        <time>2015-04-27T13:02:34Z</time>
      </trkpt>
      <trkpt lat="48.56182" lon="-2.59123">
        <ele>35.23</ele>
        <time>2015-04-27T13:02:39Z</time>
      </trkpt>
      <trkpt lat="48.56185" lon="-2.59126">
        <ele>34.26</ele>
        <time>2015-04-27T13:02:42Z</time>
      </trkpt>
      <trkpt lat="48.56187" lon="-2.5914">
        <ele>33.3</ele>
        <time>2015-04-27T13:02:50Z</time>
      </trkpt>
      <trkpt lat="48.56163" lon="-2.59171">
        <ele>33.3</ele>
        <time>2015-04-27T13:03:13Z</time>
      </trkpt>
      <trkpt lat="48.5614" lon="-2.59178">
        <ele>34.26</ele>
        <time>2015-04-27T13:03:32Z</time>
      </trkpt>
      <trkpt lat="48.56119" lon="-2.5918">
        <ele>36.19</ele>
        <time>2015-04-27T13:03:51Z</time>
      </trkpt>
      <trkpt lat="48.56101" lon="-2.59182">
        <ele>38.11</ele>
        <time>2015-04-27T13:04:09Z</time>
      </trkpt>
      <trkpt lat="48.56078" lon="-2.59189">
        <ele>39.07</ele>
        <time>2015-04-27T13:04:32Z</time>
      </trkpt>
      <trkpt lat="48.56059" lon="-2.5921">
        <ele>39.07</ele>
        <time>2015-04-27T13:04:52Z</time>
      </trkpt>
      <trkpt lat="48.56057" lon="-2.59212">
        <ele>40.03</ele>
        <time>2015-04-27T13:04:54Z</time>
      </trkpt>
      <trkpt lat="48.56045" lon="-2.59221">
        <ele>42.92</ele>
        <time>2015-04-27T13:05:09Z</time>
      </trkpt>
      <trkpt lat="48.56036" lon="-2.59236">
        <ele>46.28</ele>
        <time>2015-04-27T13:05:25Z</time>
      </trkpt>
      <trkpt lat="48.56024" lon="-2.5926">
        <ele>46.28</ele>
        <time>2015-04-27T13:05:45Z</time>
      </trkpt>
      <trkpt lat="48.5602" lon="-2.59267">
        <ele>46.28</ele>
        <time>2015-04-27T13:05:50Z</time>
      </trkpt>
      <trkpt lat="48.56" lon="-2.59276">
        <ele>44.36</ele>
        <time>2015-04-27T13:06:12Z</time>
      </trkpt>
      <trkpt lat="48.55989" lon="-2.59275">
        <ele>40.99</ele>
        <time>2015-04-27T13:06:28Z</time>
      </trkpt>
      <trkpt lat="48.55989" lon="-2.59276">
        <ele>40.99</ele>
        <time>2015-04-27T13:06:29Z</time>
      </trkpt>
      <trkpt lat="48.55982" lon="-2.59293">
        <ele>39.07</ele>
        <time>2015-04-27T13:06:42Z</time>
      </trkpt>
      <trkpt lat="48.55984" lon="-2.59311">
        <ele>39.07</ele>
        <time>2015-04-27T13:06:52Z</time>
      </trkpt>
      <trkpt lat="48.55984" lon="-2.59327">
        <ele>40.03</ele>
        <time>2015-04-27T13:07:10Z</time>
      </trkpt>
      <trkpt lat="48.55989" lon="-2.59353">
        <ele>39.55</ele>
        <time>2015-04-27T13:07:28Z</time>
      </trkpt>
      <trkpt lat="48.55991" lon="-2.5936">
        <ele>39.07</ele>
        <time>2015-04-27T13:07:33Z</time>
      </trkpt>
      <trkpt lat="48.55993" lon="-2.59362">
        <ele>38.59</ele>
        <time>2015-04-27T13:07:35Z</time>
      </trkpt>
      <trkpt lat="48.55995" lon="-2.59366">
        <ele>38.59</ele>
        <time>2015-04-27T13:07:38Z</time>
      </trkpt>
      <trkpt lat="48.55997" lon="-2.59371">
        <ele>37.63</ele>
        <time>2015-04-27T13:07:42Z</time>
      </trkpt>
      <trkpt lat="48.56001" lon="-2.59405">
        <ele>38.11</ele>
        <time>2015-04-27T13:08:03Z</time>
      </trkpt>
      <trkpt lat="48.56001" lon="-2.59406">
        <ele>38.11</ele>
        <time>2015-04-27T13:08:04Z</time>
      </trkpt>
      <trkpt lat="48.56003" lon="-2.5941">
        <ele>38.11</ele>
        <time>2015-04-27T13:08:07Z</time>
      </trkpt>
      <trkpt lat="48.56005" lon="-2.59416">
        <ele>39.55</ele>
        <time>2015-04-27T13:08:11Z</time>
      </trkpt>
      <trkpt lat="48.56012" lon="-2.59448">
        <ele>40.03</ele>
        <time>2015-04-27T13:08:30Z</time>
      </trkpt>
      <trkpt lat="48.56012" lon="-2.59477">
        <ele>38.59</ele>
        <time>2015-04-27T13:08:52Z</time>
      </trkpt>
      <trkpt lat="48.56011" lon="-2.59481">
        <ele>37.15</ele>
        <time>2015-04-27T13:09:18Z</time>
      </trkpt>
      <trkpt lat="48.56009" lon="-2.59497">
        <ele>33.3</ele>
        <time>2015-04-27T13:11:05Z</time>
      </trkpt>
      <trkpt lat="48.56008" lon="-2.59505">
        <ele>32.34</ele>
        <time>2015-04-27T13:11:20Z</time>
      </trkpt>
      <trkpt lat="48.56007" lon="-2.59517">
        <ele>32.34</ele>
        <time>2015-04-27T13:11:28Z</time>
      </trkpt>
      <trkpt lat="48.56005" lon="-2.5953">
        <ele>31.38</ele>
        <time>2015-04-27T13:11:36Z</time>
      </trkpt>
      <trkpt lat="48.55998" lon="-2.5955">
        <ele>31.86</ele>
        <time>2015-04-27T13:11:49Z</time>
      </trkpt>
      <trkpt lat="48.55981" lon="-2.59574">
        <ele>32.34</ele>
        <time>2015-04-27T13:12:09Z</time>
      </trkpt>
      <trkpt lat="48.55972" lon="-2.5958">
        <ele>30.9</ele>
        <time>2015-04-27T13:12:17Z</time>
      </trkpt>
      <trkpt lat="48.55961" lon="-2.59573">
        <ele>33.3</ele>
        <time>2015-04-27T13:12:32Z</time>
      </trkpt>
      <trkpt lat="48.55941" lon="-2.59582">
        <ele>31.38</ele>
        <time>2015-04-27T13:12:54Z</time>
      </trkpt>
      <trkpt lat="48.55937" lon="-2.59586">
        <ele>29.94</ele>
        <time>2015-04-27T13:13:00Z</time>
      </trkpt>
      <trkpt lat="48.55944" lon="-2.59594">
        <ele>28.5</ele>
        <time>2015-04-27T13:13:16Z</time>
      </trkpt>
      <trkpt lat="48.55944" lon="-2.59596">
        <ele>27.05</ele>
        <time>2015-04-27T13:13:44Z</time>
      </trkpt>
      <trkpt lat="48.55939" lon="-2.59598">
        <ele>25.61</ele>
        <time>2015-04-27T13:14:03Z</time>
      </trkpt>
      <trkpt lat="48.55939" lon="-2.59603">
        <ele>24.65</ele>
        <time>2015-04-27T13:14:16Z</time>
      </trkpt>
      <trkpt lat="48.5594" lon="-2.59612">
        <ele>22.25</ele>
        <time>2015-04-27T13:14:26Z</time>
      </trkpt>
      <trkpt lat="48.55939" lon="-2.59613">
        <ele>19.84</ele>
        <time>2015-04-27T13:14:45Z</time>
      </trkpt>
      <trkpt lat="48.55939" lon="-2.59613">
        <ele>16.96</ele>
        <time>2015-04-27T13:15:07Z</time>
      </trkpt>
      <trkpt lat="48.55926" lon="-2.59619">
        <ele>14.56</ele>
        <time>2015-04-27T13:15:25Z</time>
      </trkpt>
      <trkpt lat="48.55921" lon="-2.5962">
        <ele>13.6</ele>
        <time>2015-04-27T13:15:44Z</time>
      </trkpt>
      <trkpt lat="48.55919" lon="-2.59621">
        <ele>13.6</ele>
        <time>2015-04-27T13:16:25Z</time>
      </trkpt>
      <trkpt lat="48.55919" lon="-2.59622">
        <ele>13.12</ele>
        <time>2015-04-27T13:17:19Z</time>
      </trkpt>
      <trkpt lat="48.55918" lon="-2.59623">
        <ele>12.63</ele>
        <time>2015-04-27T13:17:33Z</time>
      </trkpt>
      <trkpt lat="48.55912" lon="-2.59633">
        <ele>13.6</ele>
        <time>2015-04-27T13:17:48Z</time>
      </trkpt>
      <trkpt lat="48.55911" lon="-2.59635">
        <ele>16.96</ele>
        <time>2015-04-27T13:17:59Z</time>
      </trkpt>
      <trkpt lat="48.55907" lon="-2.59637">
        <ele>18.88</ele>
        <time>2015-04-27T13:18:11Z</time>
      </trkpt>
      <trkpt lat="48.55899" lon="-2.59654">
        <ele>20.32</ele>
        <time>2015-04-27T13:18:29Z</time>
      </trkpt>
      <trkpt lat="48.55898" lon="-2.59668">
        <ele>22.73</ele>
        <time>2015-04-27T13:18:47Z</time>
      </trkpt>
      <trkpt lat="48.55898" lon="-2.59679">
        <ele>24.65</ele>
        <time>2015-04-27T13:19:03Z</time>
      </trkpt>
      <trkpt lat="48.55898" lon="-2.59684">
        <ele>26.57</ele>
        <time>2015-04-27T13:19:20Z</time>
      </trkpt>
      <trkpt lat="48.55898" lon="-2.59684">
        <ele>28.02</ele>
        <time>2015-04-27T13:19:41Z</time>
      </trkpt>
      <trkpt lat="48.55897" lon="-2.59685">
        <ele>27.53</ele>
        <time>2015-04-27T13:20:41Z</time>
      </trkpt>
      <trkpt lat="48.55891" lon="-2.59686">
        <ele>28.98</ele>
        <time>2015-04-27T13:21:00Z</time>
      </trkpt>
      <trkpt lat="48.55877" lon="-2.59681">
        <ele>31.86</ele>
        <time>2015-04-27T13:21:18Z</time>
      </trkpt>
      <trkpt lat="48.55858" lon="-2.59693">
        <ele>34.74</ele>
        <time>2015-04-27T13:21:35Z</time>
      </trkpt>
      <trkpt lat="48.55846" lon="-2.59708">
        <ele>38.11</ele>
        <time>2015-04-27T13:21:53Z</time>
      </trkpt>
      <trkpt lat="48.55834" lon="-2.59725">
        <ele>40.03</ele>
        <time>2015-04-27T13:22:14Z</time>
      </trkpt>
      <trkpt lat="48.55829" lon="-2.59725">
        <ele>42.92</ele>
        <time>2015-04-27T13:22:30Z</time>
      </trkpt>
      <trkpt lat="48.55826" lon="-2.59724">
        <ele>45.8</ele>
        <time>2015-04-27T13:22:44Z</time>
      </trkpt>
      <trkpt lat="48.55825" lon="-2.59725">
        <ele>45.8</ele>
        <time>2015-04-27T13:22:45Z</time>
      </trkpt>
      <trkpt lat="48.55822" lon="-2.59728">
        <ele>45.32</ele>
        <time>2015-04-27T13:22:49Z</time>
      </trkpt>
      <trkpt lat="48.55816" lon="-2.59738">
        <ele>45.8</ele>
        <time>2015-04-27T13:22:59Z</time>
      </trkpt>
      <trkpt lat="48.55812" lon="-2.59743">
        <ele>46.28</ele>
        <time>2015-04-27T13:23:24Z</time>
      </trkpt>
      <trkpt lat="48.55812" lon="-2.59743">
        <ele>46.28</ele>
        <time>2015-04-27T13:24:09Z</time>
      </trkpt>
      <trkpt lat="48.55812" lon="-2.59743">
        <ele>46.76</ele>
        <time>2015-04-27T13:24:48Z</time>
      </trkpt>
      <trkpt lat="48.55809" lon="-2.59747">
        <ele>46.76</ele>
        <time>2015-04-27T13:25:14Z</time>
      </trkpt>
      <trkpt lat="48.55806" lon="-2.59753">
        <ele>46.76</ele>
        <time>2015-04-27T13:25:20Z</time>
      </trkpt>
      <trkpt lat="48.55802" lon="-2.5976">
        <ele>47.24</ele>
        <time>2015-04-27T13:25:26Z</time>
      </trkpt>
      <trkpt lat="48.55801" lon="-2.59764">
        <ele>46.76</ele>
        <time>2015-04-27T13:25:29Z</time>
      </trkpt>
      <trkpt lat="48.55798" lon="-2.59771">
        <ele>48.68</ele>
        <time>2015-04-27T13:25:34Z</time>
      </trkpt>
      <trkpt lat="48.55792" lon="-2.59784">
        <ele>48.2</ele>
        <time>2015-04-27T13:25:44Z</time>
      </trkpt>
      <trkpt lat="48.55783" lon="-2.59793">
        <ele>47.24</ele>
        <time>2015-04-27T13:25:54Z</time>
      </trkpt>
      <trkpt lat="48.5578" lon="-2.59808">
        <ele>46.76</ele>
        <time>2015-04-27T13:26:06Z</time>
      </trkpt>
      <trkpt lat="48.55774" lon="-2.59817">
        <ele>45.8</ele>
        <time>2015-04-27T13:26:34Z</time>
      </trkpt>
      <trkpt lat="48.55772" lon="-2.59822">
        <ele>45.8</ele>
        <time>2015-04-27T13:27:01Z</time>
      </trkpt>
      <trkpt lat="48.55772" lon="-2.59822">
        <ele>44.84</ele>
        <time>2015-04-27T13:27:25Z</time>
      </trkpt>
      <trkpt lat="48.5576" lon="-2.59826">
        <ele>45.32</ele>
        <time>2015-04-27T13:27:46Z</time>
      </trkpt>
      <trkpt lat="48.55739" lon="-2.59829">
        <ele>42.44</ele>
        <time>2015-04-27T13:28:05Z</time>
      </trkpt>
      <trkpt lat="48.55719" lon="-2.59831">
        <ele>40.03</ele>
        <time>2015-04-27T13:28:26Z</time>
      </trkpt>
      <trkpt lat="48.55715" lon="-2.59827">
        <ele>39.07</ele>
        <time>2015-04-27T13:28:50Z</time>
      </trkpt>
      <trkpt lat="48.55707" lon="-2.59815">
        <ele>38.59</ele>
        <time>2015-04-27T13:29:01Z</time>
      </trkpt>
      <trkpt lat="48.55692" lon="-2.59789">
        <ele>38.11</ele>
        <time>2015-04-27T13:29:22Z</time>
      </trkpt>
      <trkpt lat="48.55687" lon="-2.5978">
        <ele>37.63</ele>
        <time>2015-04-27T13:29:29Z</time>
      </trkpt>
      <trkpt lat="48.55682" lon="-2.59772">
        <ele>38.11</ele>
        <time>2015-04-27T13:29:34Z</time>
      </trkpt>
      <trkpt lat="48.55676" lon="-2.59766">
        <ele>38.11</ele>
        <time>2015-04-27T13:29:40Z</time>
      </trkpt>
      <trkpt lat="48.55673" lon="-2.59761">
        <ele>38.59</ele>
        <time>2015-04-27T13:29:45Z</time>
      </trkpt>
      <trkpt lat="48.55669" lon="-2.59755">
        <ele>39.07</ele>
        <time>2015-04-27T13:29:50Z</time>
      </trkpt>
      <trkpt lat="48.55655" lon="-2.59735">
        <ele>39.55</ele>
        <time>2015-04-27T13:30:07Z</time>
      </trkpt>
      <trkpt lat="48.55652" lon="-2.59733">
        <ele>39.55</ele>
        <time>2015-04-27T13:30:10Z</time>
      </trkpt>
      <trkpt lat="48.55647" lon="-2.5973">
        <ele>39.55</ele>
        <time>2015-04-27T13:30:14Z</time>
      </trkpt>
      <trkpt lat="48.5564" lon="-2.59728">
        <ele>40.03</ele>
        <time>2015-04-27T13:30:21Z</time>
      </trkpt>
      <trkpt lat="48.55633" lon="-2.59728">
        <ele>40.03</ele>
        <time>2015-04-27T13:30:26Z</time>
      </trkpt>
      <trkpt lat="48.55631" lon="-2.59727">
        <ele>40.51</ele>
        <time>2015-04-27T13:30:28Z</time>
      </trkpt>
      <trkpt lat="48.55627" lon="-2.59727">
        <ele>40.99</ele>
        <time>2015-04-27T13:30:32Z</time>
      </trkpt>
      <trkpt lat="48.55602" lon="-2.59716">
        <ele>42.44</ele>
        <time>2015-04-27T13:30:52Z</time>
      </trkpt>
      <trkpt lat="48.55593" lon="-2.5971">
        <ele>42.92</ele>
        <time>2015-04-27T13:31:00Z</time>
      </trkpt>
      <trkpt lat="48.5558" lon="-2.59686">
        <ele>43.88</ele>
        <time>2015-04-27T13:31:20Z</time>
      </trkpt>
      <trkpt lat="48.55573" lon="-2.59669">
        <ele>44.36</ele>
        <time>2015-04-27T13:31:31Z</time>
      </trkpt>
      <trkpt lat="48.55559" lon="-2.59639">
        <ele>44.36</ele>
        <time>2015-04-27T13:31:52Z</time>
      </trkpt>
      <trkpt lat="48.55559" lon="-2.59638">
        <ele>44.36</ele>
        <time>2015-04-27T13:31:53Z</time>
      </trkpt>
      <trkpt lat="48.55553" lon="-2.59626">
        <ele>44.36</ele>
        <time>2015-04-27T13:32:01Z</time>
      </trkpt>
      <trkpt lat="48.55548" lon="-2.59619">
        <ele>44.84</ele>
        <time>2015-04-27T13:32:07Z</time>
      </trkpt>
      <trkpt lat="48.55544" lon="-2.59616">
        <ele>44.84</ele>
        <time>2015-04-27T13:32:11Z</time>
      </trkpt>
      <trkpt lat="48.55523" lon="-2.59608">
        <ele>44.84</ele>
        <time>2015-04-27T13:32:28Z</time>
      </trkpt>
      <trkpt lat="48.55505" lon="-2.59591">
        <ele>45.32</ele>
        <time>2015-04-27T13:32:48Z</time>
      </trkpt>
      <trkpt lat="48.55503" lon="-2.59578">
        <ele>46.28</ele>
        <time>2015-04-27T13:32:58Z</time>
      </trkpt>
      <trkpt lat="48.55509" lon="-2.59561">
        <ele>46.76</ele>
        <time>2015-04-27T13:33:19Z</time>
      </trkpt>
      <trkpt lat="48.55515" lon="-2.59534">
        <ele>48.2</ele>
        <time>2015-04-27T13:33:35Z</time>
      </trkpt>
      <trkpt lat="48.5552" lon="-2.59531">
        <ele>47.72</ele>
        <time>2015-04-27T13:33:39Z</time>
      </trkpt>
      <trkpt lat="48.55524" lon="-2.59522">
        <ele>47.72</ele>
        <time>2015-04-27T13:33:45Z</time>
      </trkpt>
      <trkpt lat="48.55534" lon="-2.59502">
        <ele>48.68</ele>
        <time>2015-04-27T13:33:59Z</time>
      </trkpt>
      <trkpt lat="48.55537" lon="-2.5949">
        <ele>48.68</ele>
        <time>2015-04-27T13:34:05Z</time>
      </trkpt>
      <trkpt lat="48.5554" lon="-2.59483">
        <ele>49.16</ele>
        <time>2015-04-27T13:34:10Z</time>
      </trkpt>
      <trkpt lat="48.55556" lon="-2.59449">
        <ele>50.61</ele>
        <time>2015-04-27T13:34:34Z</time>
      </trkpt>
      <trkpt lat="48.55572" lon="-2.59417">
        <ele>51.57</ele>
        <time>2015-04-27T13:34:56Z</time>
      </trkpt>
      <trkpt lat="48.55577" lon="-2.59379">
        <ele>52.05</ele>
        <time>2015-04-27T13:35:17Z</time>
      </trkpt>
      <trkpt lat="48.55576" lon="-2.59346">
        <ele>51.57</ele>
        <time>2015-04-27T13:35:35Z</time>
      </trkpt>
      <trkpt lat="48.55572" lon="-2.59325">
        <ele>51.57</ele>
        <time>2015-04-27T13:35:46Z</time>
      </trkpt>
      <trkpt lat="48.55572" lon="-2.59312">
        <ele>52.05</ele>
        <time>2015-04-27T13:35:53Z</time>
      </trkpt>
      <trkpt lat="48.55568" lon="-2.59281">
        <ele>52.05</ele>
        <time>2015-04-27T13:36:09Z</time>
      </trkpt>
      <trkpt lat="48.5557" lon="-2.59278">
        <ele>51.57</ele>
        <time>2015-04-27T13:36:11Z</time>
      </trkpt>
      <trkpt lat="48.55589" lon="-2.5927">
        <ele>52.53</ele>
        <time>2015-04-27T13:36:27Z</time>
      </trkpt>
      <trkpt lat="48.55608" lon="-2.59267">
        <ele>53.01</ele>
        <time>2015-04-27T13:36:43Z</time>
      </trkpt>
      <trkpt lat="48.5562" lon="-2.59261">
        <ele>53.97</ele>
        <time>2015-04-27T13:36:53Z</time>
      </trkpt>
      <trkpt lat="48.55626" lon="-2.59258">
        <ele>53.49</ele>
        <time>2015-04-27T13:36:58Z</time>
      </trkpt>
      <trkpt lat="48.55656" lon="-2.59241">
        <ele>53.49</ele>
        <time>2015-04-27T13:37:24Z</time>
      </trkpt>
      <trkpt lat="48.5568" lon="-2.59223">
        <ele>52.53</ele>
        <time>2015-04-27T13:37:47Z</time>
      </trkpt>
      <trkpt lat="48.55684" lon="-2.59219">
        <ele>52.05</ele>
        <time>2015-04-27T13:37:51Z</time>
      </trkpt>
      <trkpt lat="48.55687" lon="-2.59217">
        <ele>51.57</ele>
        <time>2015-04-27T13:37:54Z</time>
      </trkpt>
      <trkpt lat="48.55693" lon="-2.5921">
        <ele>51.09</ele>
        <time>2015-04-27T13:38:01Z</time>
      </trkpt>
      <trkpt lat="48.55698" lon="-2.59205">
        <ele>52.53</ele>
        <time>2015-04-27T13:38:06Z</time>
      </trkpt>
      <trkpt lat="48.55701" lon="-2.59201">
        <ele>52.53</ele>
        <time>2015-04-27T13:38:09Z</time>
      </trkpt>
      <trkpt lat="48.55705" lon="-2.59197">
        <ele>52.05</ele>
        <time>2015-04-27T13:38:14Z</time>
      </trkpt>
      <trkpt lat="48.55721" lon="-2.59168">
        <ele>52.53</ele>
        <time>2015-04-27T13:38:37Z</time>
      </trkpt>
      <trkpt lat="48.55723" lon="-2.59162">
        <ele>52.53</ele>
        <time>2015-04-27T13:38:41Z</time>
      </trkpt>
      <trkpt lat="48.55725" lon="-2.59156">
        <ele>52.53</ele>
        <time>2015-04-27T13:38:45Z</time>
      </trkpt>
      <trkpt lat="48.55734" lon="-2.59141">
        <ele>54.93</ele>
        <time>2015-04-27T13:38:57Z</time>
      </trkpt>
      <trkpt lat="48.55744" lon="-2.59127">
        <ele>53.49</ele>
        <time>2015-04-27T13:39:16Z</time>
      </trkpt>
      <trkpt lat="48.55745" lon="-2.59127">
        <ele>53.97</ele>
        <time>2015-04-27T13:39:32Z</time>
      </trkpt>
      <trkpt lat="48.55749" lon="-2.59126">
        <ele>55.89</ele>
        <time>2015-04-27T13:39:35Z</time>
      </trkpt>
      <trkpt lat="48.5575" lon="-2.59126">
        <ele>55.41</ele>
        <time>2015-04-27T13:39:36Z</time>
      </trkpt>
      <trkpt lat="48.55777" lon="-2.59117">
        <ele>54.45</ele>
        <time>2015-04-27T13:39:54Z</time>
      </trkpt>
      <trkpt lat="48.55789" lon="-2.59112">
        <ele>53.97</ele>
        <time>2015-04-27T13:40:02Z</time>
      </trkpt>
      <trkpt lat="48.55811" lon="-2.59103">
        <ele>54.93</ele>
        <time>2015-04-27T13:40:19Z</time>
      </trkpt>
      <trkpt lat="48.55833" lon="-2.59095">
        <ele>54.93</ele>
        <time>2015-04-27T13:40:39Z</time>
      </trkpt>
      <trkpt lat="48.55858" lon="-2.59082">
        <ele>55.41</ele>
        <time>2015-04-27T13:41:00Z</time>
      </trkpt>
      <trkpt lat="48.55889" lon="-2.59066">
        <ele>56.86</ele>
        <time>2015-04-27T13:41:22Z</time>
      </trkpt>
      <trkpt lat="48.5589" lon="-2.59066">
        <ele>56.37</ele>
        <time>2015-04-27T13:41:23Z</time>
      </trkpt>
      <trkpt lat="48.55913" lon="-2.59052">
        <ele>57.34</ele>
        <time>2015-04-27T13:41:45Z</time>
      </trkpt>
      <trkpt lat="48.55915" lon="-2.5905">
        <ele>57.34</ele>
        <time>2015-04-27T13:41:47Z</time>
      </trkpt>
      <trkpt lat="48.5594" lon="-2.59032">
        <ele>59.26</ele>
        <time>2015-04-27T13:42:09Z</time>
      </trkpt>
      <trkpt lat="48.55944" lon="-2.59028">
        <ele>59.26</ele>
        <time>2015-04-27T13:42:13Z</time>
      </trkpt>
      <trkpt lat="48.55949" lon="-2.59023">
        <ele>59.74</ele>
        <time>2015-04-27T13:42:18Z</time>
      </trkpt>
      <trkpt lat="48.55953" lon="-2.59018">
        <ele>60.22</ele>
        <time>2015-04-27T13:42:23Z</time>
      </trkpt>
      <trkpt lat="48.55966" lon="-2.5899">
        <ele>63.1</ele>
        <time>2015-04-27T13:42:43Z</time>
      </trkpt>
      <trkpt lat="48.55969" lon="-2.58983">
        <ele>64.07</ele>
        <time>2015-04-27T13:42:51Z</time>
      </trkpt>
      <trkpt lat="48.55982" lon="-2.58968">
        <ele>65.99</ele>
        <time>2015-04-27T13:43:09Z</time>
      </trkpt>
      <trkpt lat="48.55984" lon="-2.58966">
        <ele>65.99</ele>
        <time>2015-04-27T13:43:12Z</time>
      </trkpt>
      <trkpt lat="48.5599" lon="-2.58961">
        <ele>67.43</ele>
        <time>2015-04-27T13:43:19Z</time>
      </trkpt>
      <trkpt lat="48.56001" lon="-2.58956">
        <ele>68.39</ele>
        <time>2015-04-27T13:43:31Z</time>
      </trkpt>
      <trkpt lat="48.56018" lon="-2.58937">
        <ele>68.39</ele>
        <time>2015-04-27T13:43:51Z</time>
      </trkpt>
      <trkpt lat="48.56023" lon="-2.58932">
        <ele>68.39</ele>
        <time>2015-04-27T13:43:56Z</time>
      </trkpt>
      <trkpt lat="48.56042" lon="-2.58912">
        <ele>67.91</ele>
        <time>2015-04-27T13:44:16Z</time>
      </trkpt>
      <trkpt lat="48.56044" lon="-2.5891">
        <ele>68.39</ele>
        <time>2015-04-27T13:44:18Z</time>
      </trkpt>
      <trkpt lat="48.5605" lon="-2.58902">
        <ele>68.39</ele>
        <time>2015-04-27T13:44:25Z</time>
      </trkpt>
      <trkpt lat="48.5606" lon="-2.58886">
        <ele>67.91</ele>
        <time>2015-04-27T13:44:38Z</time>
      </trkpt>
      <trkpt lat="48.56077" lon="-2.5886">
        <ele>66.95</ele>
        <time>2015-04-27T13:44:59Z</time>
      </trkpt>
      <trkpt lat="48.56083" lon="-2.5885">
        <ele>65.99</ele>
        <time>2015-04-27T13:45:07Z</time>
      </trkpt>
      <trkpt lat="48.56089" lon="-2.58842">
        <ele>65.51</ele>
        <time>2015-04-27T13:45:17Z</time>
      </trkpt>
      <trkpt lat="48.56097" lon="-2.58831">
        <ele>64.55</ele>
        <time>2015-04-27T13:45:27Z</time>
      </trkpt>
      <trkpt lat="48.56101" lon="-2.58825">
        <ele>64.55</ele>
        <time>2015-04-27T13:45:32Z</time>
      </trkpt>
      <trkpt lat="48.56117" lon="-2.58799">
        <ele>63.1</ele>
        <time>2015-04-27T13:45:54Z</time>
      </trkpt>
      <trkpt lat="48.56132" lon="-2.58776">
        <ele>61.18</ele>
        <time>2015-04-27T13:46:13Z</time>
      </trkpt>
      <trkpt lat="48.56147" lon="-2.58754">
        <ele>60.22</ele>
        <time>2015-04-27T13:46:33Z</time>
      </trkpt>
      <trkpt lat="48.56163" lon="-2.58729">
        <ele>59.74</ele>
        <time>2015-04-27T13:46:52Z</time>
      </trkpt>
      <trkpt lat="48.56164" lon="-2.58726">
        <ele>59.74</ele>
        <time>2015-04-27T13:46:54Z</time>
      </trkpt>
      <trkpt lat="48.56181" lon="-2.58701">
        <ele>58.78</ele>
        <time>2015-04-27T13:47:14Z</time>
      </trkpt>
      <trkpt lat="48.56192" lon="-2.58684">
        <ele>58.3</ele>
        <time>2015-04-27T13:47:32Z</time>
      </trkpt>
      <trkpt lat="48.56199" lon="-2.58676">
        <ele>56.37</ele>
        <time>2015-04-27T13:47:40Z</time>
      </trkpt>
      <trkpt lat="48.56208" lon="-2.58665">
        <ele>57.82</ele>
        <time>2015-04-27T13:47:50Z</time>
      </trkpt>
      <trkpt lat="48.56211" lon="-2.58661">
        <ele>57.82</ele>
        <time>2015-04-27T13:47:54Z</time>
      </trkpt>
      <trkpt lat="48.56219" lon="-2.58652">
        <ele>57.34</ele>
        <time>2015-04-27T13:48:03Z</time>
      </trkpt>
      <trkpt lat="48.56221" lon="-2.58649">
        <ele>56.86</ele>
        <time>2015-04-27T13:48:05Z</time>
      </trkpt>
      <trkpt lat="48.56235" lon="-2.58628">
        <ele>56.37</ele>
        <time>2015-04-27T13:48:23Z</time>
      </trkpt>
      <trkpt lat="48.56248" lon="-2.58611">
        <ele>55.89</ele>
        <time>2015-04-27T13:48:37Z</time>
      </trkpt>
      <trkpt lat="48.56251" lon="-2.58608">
        <ele>56.37</ele>
        <time>2015-04-27T13:48:40Z</time>
      </trkpt>
      <trkpt lat="48.56268" lon="-2.58582">
        <ele>54.93</ele>
        <time>2015-04-27T13:49:01Z</time>
      </trkpt>
      <trkpt lat="48.56286" lon="-2.58558">
        <ele>52.53</ele>
        <time>2015-04-27T13:49:21Z</time>
      </trkpt>
      <trkpt lat="48.56302" lon="-2.58531">
        <ele>52.05</ele>
        <time>2015-04-27T13:49:40Z</time>
      </trkpt>
      <trkpt lat="48.56304" lon="-2.58529">
        <ele>52.05</ele>
        <time>2015-04-27T13:49:42Z</time>
      </trkpt>
      <trkpt lat="48.56307" lon="-2.5852">
        <ele>51.57</ele>
        <time>2015-04-27T13:49:48Z</time>
      </trkpt>
      <trkpt lat="48.56314" lon="-2.58506">
        <ele>51.57</ele>
        <time>2015-04-27T13:49:58Z</time>
      </trkpt>
      <trkpt lat="48.56328" lon="-2.58471">
        <ele>52.05</ele>
        <time>2015-04-27T13:50:21Z</time>
      </trkpt>
      <trkpt lat="48.56336" lon="-2.58437">
        <ele>52.05</ele>
        <time>2015-04-27T13:50:41Z</time>
      </trkpt>
      <trkpt lat="48.5634" lon="-2.58413">
        <ele>52.53</ele>
        <time>2015-04-27T13:50:55Z</time>
      </trkpt>
      <trkpt lat="48.56351" lon="-2.58386">
        <ele>53.01</ele>
        <time>2015-04-27T13:51:14Z</time>
      </trkpt>
      <trkpt lat="48.56354" lon="-2.58378">
        <ele>53.01</ele>
        <time>2015-04-27T13:51:19Z</time>
      </trkpt>
      <trkpt lat="48.56359" lon="-2.58372">
        <ele>53.01</ele>
        <time>2015-04-27T13:51:25Z</time>
      </trkpt>
      <trkpt lat="48.56362" lon="-2.58369">
        <ele>53.01</ele>
        <time>2015-04-27T13:51:28Z</time>
      </trkpt>
      <trkpt lat="48.56364" lon="-2.58365">
        <ele>52.05</ele>
        <time>2015-04-27T13:51:33Z</time>
      </trkpt>
      <trkpt lat="48.5638" lon="-2.58347">
        <ele>52.53</ele>
        <time>2015-04-27T13:51:49Z</time>
      </trkpt>
      <trkpt lat="48.56384" lon="-2.58339">
        <ele>52.05</ele>
        <time>2015-04-27T13:51:54Z</time>
      </trkpt>
      <trkpt lat="48.56392" lon="-2.58326">
        <ele>51.09</ele>
        <time>2015-04-27T13:52:09Z</time>
      </trkpt>
      <trkpt lat="48.56397" lon="-2.58322">
        <ele>50.13</ele>
        <time>2015-04-27T13:52:14Z</time>
      </trkpt>
      <trkpt lat="48.56405" lon="-2.58315">
        <ele>49.16</ele>
        <time>2015-04-27T13:52:21Z</time>
      </trkpt>
      <trkpt lat="48.56407" lon="-2.58314">
        <ele>48.68</ele>
        <time>2015-04-27T13:52:23Z</time>
      </trkpt>
      <trkpt lat="48.56412" lon="-2.58312">
        <ele>48.2</ele>
        <time>2015-04-27T13:52:27Z</time>
      </trkpt>
      <trkpt lat="48.56413" lon="-2.58309">
        <ele>47.72</ele>
        <time>2015-04-27T13:52:29Z</time>
      </trkpt>
      <trkpt lat="48.56415" lon="-2.58307">
        <ele>48.2</ele>
        <time>2015-04-27T13:52:31Z</time>
      </trkpt>
      <trkpt lat="48.56419" lon="-2.583">
        <ele>48.2</ele>
        <time>2015-04-27T13:52:36Z</time>
      </trkpt>
      <trkpt lat="48.5643" lon="-2.5829">
        <ele>46.28</ele>
        <time>2015-04-27T13:52:47Z</time>
      </trkpt>
      <trkpt lat="48.56435" lon="-2.58286">
        <ele>46.28</ele>
        <time>2015-04-27T13:52:51Z</time>
      </trkpt>
      <trkpt lat="48.56439" lon="-2.5828">
        <ele>45.8</ele>
        <time>2015-04-27T13:52:56Z</time>
      </trkpt>
      <trkpt lat="48.56446" lon="-2.58269">
        <ele>46.28</ele>
        <time>2015-04-27T13:53:04Z</time>
      </trkpt>
      <trkpt lat="48.5645" lon="-2.58263">
        <ele>46.28</ele>
        <time>2015-04-27T13:53:09Z</time>
      </trkpt>
      <trkpt lat="48.56458" lon="-2.58253">
        <ele>46.28</ele>
        <time>2015-04-27T13:53:17Z</time>
      </trkpt>
      <trkpt lat="48.56466" lon="-2.58233">
        <ele>45.8</ele>
        <time>2015-04-27T13:53:30Z</time>
      </trkpt>
      <trkpt lat="48.56469" lon="-2.5823">
        <ele>45.8</ele>
        <time>2015-04-27T13:53:33Z</time>
      </trkpt>
      <trkpt lat="48.56473" lon="-2.58223">
        <ele>45.8</ele>
        <time>2015-04-27T13:53:38Z</time>
      </trkpt>
      <trkpt lat="48.56479" lon="-2.58214">
        <ele>45.32</ele>
        <time>2015-04-27T13:53:45Z</time>
      </trkpt>
      <trkpt lat="48.56482" lon="-2.5821">
        <ele>45.32</ele>
        <time>2015-04-27T13:53:49Z</time>
      </trkpt>
      <trkpt lat="48.56502" lon="-2.58191">
        <ele>44.84</ele>
        <time>2015-04-27T13:54:08Z</time>
      </trkpt>
      <trkpt lat="48.56513" lon="-2.58178">
        <ele>44.36</ele>
        <time>2015-04-27T13:54:28Z</time>
      </trkpt>
      <trkpt lat="48.56524" lon="-2.58167">
        <ele>43.4</ele>
        <time>2015-04-27T13:54:54Z</time>
      </trkpt>
      <trkpt lat="48.5653" lon="-2.58162">
        <ele>42.92</ele>
        <time>2015-04-27T13:55:05Z</time>
      </trkpt>
      <trkpt lat="48.56534" lon="-2.58159">
        <ele>42.44</ele>
        <time>2015-04-27T13:55:09Z</time>
      </trkpt>
      <trkpt lat="48.56537" lon="-2.58158">
        <ele>42.92</ele>
        <time>2015-04-27T13:55:12Z</time>
      </trkpt>
      <trkpt lat="48.56539" lon="-2.58154">
        <ele>42.44</ele>
        <time>2015-04-27T13:55:15Z</time>
      </trkpt>
      <trkpt lat="48.56542" lon="-2.58153">
        <ele>42.92</ele>
        <time>2015-04-27T13:55:17Z</time>
      </trkpt>
      <trkpt lat="48.56553" lon="-2.58147">
        <ele>41.95</ele>
        <time>2015-04-27T13:55:28Z</time>
      </trkpt>
      <trkpt lat="48.56556" lon="-2.58136">
        <ele>41.95</ele>
        <time>2015-04-27T13:55:35Z</time>
      </trkpt>
      <trkpt lat="48.56563" lon="-2.5813">
        <ele>40.99</ele>
        <time>2015-04-27T13:55:42Z</time>
      </trkpt>
      <trkpt lat="48.5657" lon="-2.58122">
        <ele>41.47</ele>
        <time>2015-04-27T13:55:50Z</time>
      </trkpt>
      <trkpt lat="48.56585" lon="-2.58098">
        <ele>42.44</ele>
        <time>2015-04-27T13:56:09Z</time>
      </trkpt>
      <trkpt lat="48.56592" lon="-2.58086">
        <ele>43.4</ele>
        <time>2015-04-27T13:56:19Z</time>
      </trkpt>
      <trkpt lat="48.56601" lon="-2.58077">
        <ele>44.36</ele>
        <time>2015-04-27T13:56:29Z</time>
      </trkpt>
      <trkpt lat="48.56623" lon="-2.58065">
        <ele>46.28</ele>
        <time>2015-04-27T13:56:50Z</time>
      </trkpt>
      <trkpt lat="48.56646" lon="-2.58062">
        <ele>44.84</ele>
        <time>2015-04-27T13:57:10Z</time>
      </trkpt>
      <trkpt lat="48.56668" lon="-2.58052">
        <ele>43.88</ele>
        <time>2015-04-27T13:57:30Z</time>
      </trkpt>
      <trkpt lat="48.5669" lon="-2.58032">
        <ele>41.95</ele>
        <time>2015-04-27T13:57:52Z</time>
      </trkpt>
      <trkpt lat="48.56702" lon="-2.58016">
        <ele>41.47</ele>
        <time>2015-04-27T13:58:06Z</time>
      </trkpt>
      <trkpt lat="48.56722" lon="-2.57991">
        <ele>39.55</ele>
        <time>2015-04-27T13:58:29Z</time>
      </trkpt>
      <trkpt lat="48.5673" lon="-2.57983">
        <ele>39.07</ele>
        <time>2015-04-27T13:58:38Z</time>
      </trkpt>
      <trkpt lat="48.56736" lon="-2.57981">
        <ele>39.07</ele>
        <time>2015-04-27T13:58:42Z</time>
      </trkpt>
      <trkpt lat="48.56738" lon="-2.5798">
        <ele>39.07</ele>
        <time>2015-04-27T13:58:44Z</time>
      </trkpt>
      <trkpt lat="48.5674" lon="-2.57978">
        <ele>39.07</ele>
        <time>2015-04-27T13:58:46Z</time>
      </trkpt>
      <trkpt lat="48.56763" lon="-2.57967">
        <ele>38.11</ele>
        <time>2015-04-27T13:59:05Z</time>
      </trkpt>
      <trkpt lat="48.56784" lon="-2.57961">
        <ele>38.11</ele>
        <time>2015-04-27T13:59:23Z</time>
      </trkpt>
      <trkpt lat="48.56807" lon="-2.57959">
        <ele>35.71</ele>
        <time>2015-04-27T13:59:43Z</time>
      </trkpt>
      <trkpt lat="48.56832" lon="-2.57962">
        <ele>33.78</ele>
        <time>2015-04-27T14:00:04Z</time>
      </trkpt>
      <trkpt lat="48.56862" lon="-2.57957">
        <ele>31.86</ele>
        <time>2015-04-27T14:00:28Z</time>
      </trkpt>
      <trkpt lat="48.56871" lon="-2.57954">
        <ele>31.86</ele>
        <time>2015-04-27T14:00:55Z</time>
      </trkpt>
      <trkpt lat="48.56876" lon="-2.57952">
        <ele>32.34</ele>
        <time>2015-04-27T14:01:49Z</time>
      </trkpt>
      <trkpt lat="48.56878" lon="-2.57952">
        <ele>31.38</ele>
        <time>2015-04-27T14:01:51Z</time>
      </trkpt>
      <trkpt lat="48.56897" lon="-2.57947">
        <ele>28.5</ele>
        <time>2015-04-27T14:02:07Z</time>
      </trkpt>
      <trkpt lat="48.56908" lon="-2.57947">
        <ele>27.05</ele>
        <time>2015-04-27T14:02:16Z</time>
      </trkpt>
      <trkpt lat="48.56914" lon="-2.57949">
        <ele>26.09</ele>
        <time>2015-04-27T14:02:21Z</time>
      </trkpt>
      <trkpt lat="48.56935" lon="-2.57949">
        <ele>22.73</ele>
        <time>2015-04-27T14:02:39Z</time>
      </trkpt>
      <trkpt lat="48.56947" lon="-2.57947">
        <ele>20.81</ele>
        <time>2015-04-27T14:02:49Z</time>
      </trkpt>
      <trkpt lat="48.56963" lon="-2.57942">
        <ele>19.84</ele>
        <time>2015-04-27T14:03:02Z</time>
      </trkpt>
      <trkpt lat="48.56965" lon="-2.57942">
        <ele>19.36</ele>
        <time>2015-04-27T14:03:04Z</time>
      </trkpt>
      <trkpt lat="48.56987" lon="-2.5794">
        <ele>17.44</ele>
        <time>2015-04-27T14:03:21Z</time>
      </trkpt>
      <trkpt lat="48.5699" lon="-2.57937">
        <ele>16.96</ele>
        <time>2015-04-27T14:03:24Z</time>
      </trkpt>
      <trkpt lat="48.57" lon="-2.57933">
        <ele>16.48</ele>
        <time>2015-04-27T14:03:33Z</time>
      </trkpt>
      <trkpt lat="48.57002" lon="-2.57933">
        <ele>16.48</ele>
        <time>2015-04-27T14:03:35Z</time>
      </trkpt>
      <trkpt lat="48.57027" lon="-2.57922">
        <ele>14.08</ele>
        <time>2015-04-27T14:03:57Z</time>
      </trkpt>
      <trkpt lat="48.57046" lon="-2.57917">
        <ele>9.27</ele>
        <time>2015-04-27T14:04:15Z</time>
      </trkpt>
      <trkpt lat="48.57046" lon="-2.57917">
        <ele>11.67</ele>
        <time>2015-04-27T14:04:16Z</time>
      </trkpt>
      <trkpt lat="48.57048" lon="-2.57915">
        <ele>7.83</ele>
        <time>2015-04-27T14:04:18Z</time>
      </trkpt>
      <trkpt lat="48.57049" lon="-2.57914">
        <ele>12.15</ele>
        <time>2015-04-27T14:04:19Z</time>
      </trkpt>
      <trkpt lat="48.57062" lon="-2.57902">
        <ele>9.75</ele>
        <time>2015-04-27T14:04:34Z</time>
      </trkpt>
      <trkpt lat="48.57062" lon="-2.57891">
        <ele>11.19</ele>
        <time>2015-04-27T14:04:44Z</time>
      </trkpt>
      <trkpt lat="48.57067" lon="-2.57881">
        <ele>11.19</ele>
        <time>2015-04-27T14:05:03Z</time>
      </trkpt>
      <trkpt lat="48.57071" lon="-2.57875">
        <ele>11.67</ele>
        <time>2015-04-27T14:05:10Z</time>
      </trkpt>
      <trkpt lat="48.57075" lon="-2.57873">
        <ele>11.67</ele>
        <time>2015-04-27T14:05:13Z</time>
      </trkpt>
      <trkpt lat="48.57077" lon="-2.57873">
        <ele>12.15</ele>
        <time>2015-04-27T14:05:15Z</time>
      </trkpt>
      <trkpt lat="48.57091" lon="-2.57864">
        <ele>14.08</ele>
        <time>2015-04-27T14:05:28Z</time>
      </trkpt>
      <trkpt lat="48.57097" lon="-2.57859">
        <ele>14.56</ele>
        <time>2015-04-27T14:05:34Z</time>
      </trkpt>
      <trkpt lat="48.57104" lon="-2.57855">
        <ele>15.52</ele>
        <time>2015-04-27T14:05:47Z</time>
      </trkpt>
      <trkpt lat="48.57113" lon="-2.57849">
        <ele>16</ele>
        <time>2015-04-27T14:05:56Z</time>
      </trkpt>
      <trkpt lat="48.57121" lon="-2.57844">
        <ele>16.96</ele>
        <time>2015-04-27T14:06:03Z</time>
      </trkpt>
      <trkpt lat="48.57125" lon="-2.57838">
        <ele>18.4</ele>
        <time>2015-04-27T14:06:12Z</time>
      </trkpt>
      <trkpt lat="48.57129" lon="-2.57835">
        <ele>18.88</ele>
        <time>2015-04-27T14:06:16Z</time>
      </trkpt>
      <trkpt lat="48.57135" lon="-2.57828">
        <ele>18.88</ele>
        <time>2015-04-27T14:06:24Z</time>
      </trkpt>
      <trkpt lat="48.57143" lon="-2.57814">
        <ele>20.32</ele>
        <time>2015-04-27T14:06:36Z</time>
      </trkpt>
      <trkpt lat="48.57147" lon="-2.57812">
        <ele>20.32</ele>
        <time>2015-04-27T14:06:39Z</time>
      </trkpt>
      <trkpt lat="48.57149" lon="-2.57809">
        <ele>20.32</ele>
        <time>2015-04-27T14:06:42Z</time>
      </trkpt>
      <trkpt lat="48.57153" lon="-2.57803">
        <ele>21.77</ele>
        <time>2015-04-27T14:06:48Z</time>
      </trkpt>
      <trkpt lat="48.5716" lon="-2.57792">
        <ele>22.25</ele>
        <time>2015-04-27T14:06:57Z</time>
      </trkpt>
      <trkpt lat="48.5717" lon="-2.57757">
        <ele>23.69</ele>
        <time>2015-04-27T14:07:19Z</time>
      </trkpt>
      <trkpt lat="48.57173" lon="-2.57718">
        <ele>23.21</ele>
        <time>2015-04-27T14:07:40Z</time>
      </trkpt>
      <trkpt lat="48.57173" lon="-2.57675">
        <ele>23.21</ele>
        <time>2015-04-27T14:08:01Z</time>
      </trkpt>
      <trkpt lat="48.57173" lon="-2.57654">
        <ele>22.25</ele>
        <time>2015-04-27T14:08:12Z</time>
      </trkpt>
      <trkpt lat="48.57172" lon="-2.57642">
        <ele>22.73</ele>
        <time>2015-04-27T14:08:18Z</time>
      </trkpt>
      <trkpt lat="48.57172" lon="-2.57632">
        <ele>23.21</ele>
        <time>2015-04-27T14:08:24Z</time>
      </trkpt>
      <trkpt lat="48.57171" lon="-2.57592">
        <ele>23.21</ele>
        <time>2015-04-27T14:08:45Z</time>
      </trkpt>
      <trkpt lat="48.57179" lon="-2.57578">
        <ele>22.73</ele>
        <time>2015-04-27T14:09:01Z</time>
      </trkpt>
      <trkpt lat="48.57171" lon="-2.57553">
        <ele>22.25</ele>
        <time>2015-04-27T14:09:18Z</time>
      </trkpt>
      <trkpt lat="48.5716" lon="-2.57527">
        <ele>21.29</ele>
        <time>2015-04-27T14:09:36Z</time>
      </trkpt>
      <trkpt lat="48.57148" lon="-2.57494">
        <ele>21.29</ele>
        <time>2015-04-27T14:09:57Z</time>
      </trkpt>
      <trkpt lat="48.57145" lon="-2.57486">
        <ele>20.81</ele>
        <time>2015-04-27T14:10:02Z</time>
      </trkpt>
      <trkpt lat="48.57142" lon="-2.57469">
        <ele>20.32</ele>
        <time>2015-04-27T14:10:11Z</time>
      </trkpt>
      <trkpt lat="48.57135" lon="-2.57443">
        <ele>19.84</ele>
        <time>2015-04-27T14:10:32Z</time>
      </trkpt>
      <trkpt lat="48.57134" lon="-2.57435">
        <ele>19.36</ele>
        <time>2015-04-27T14:10:37Z</time>
      </trkpt>
      <trkpt lat="48.57133" lon="-2.57423">
        <ele>18.88</ele>
        <time>2015-04-27T14:10:44Z</time>
      </trkpt>
      <trkpt lat="48.57136" lon="-2.57392">
        <ele>17.92</ele>
        <time>2015-04-27T14:11:03Z</time>
      </trkpt>
      <trkpt lat="48.5714" lon="-2.57364">
        <ele>17.44</ele>
        <time>2015-04-27T14:11:18Z</time>
      </trkpt>
      <trkpt lat="48.57142" lon="-2.5735">
        <ele>16.96</ele>
        <time>2015-04-27T14:11:26Z</time>
      </trkpt>
      <trkpt lat="48.57146" lon="-2.5733">
        <ele>16.96</ele>
        <time>2015-04-27T14:11:44Z</time>
      </trkpt>
      <trkpt lat="48.57148" lon="-2.57315">
        <ele>17.44</ele>
        <time>2015-04-27T14:11:52Z</time>
      </trkpt>
      <trkpt lat="48.57165" lon="-2.57291">
        <ele>16.48</ele>
        <time>2015-04-27T14:12:11Z</time>
      </trkpt>
      <trkpt lat="48.57166" lon="-2.5729">
        <ele>16.48</ele>
        <time>2015-04-27T14:12:12Z</time>
      </trkpt>
      <trkpt lat="48.57181" lon="-2.57275">
        <ele>16.48</ele>
        <time>2015-04-27T14:12:33Z</time>
      </trkpt>
      <trkpt lat="48.57181" lon="-2.57275">
        <ele>16</ele>
        <time>2015-04-27T14:12:34Z</time>
      </trkpt>
      <trkpt lat="48.57207" lon="-2.57254">
        <ele>15.52</ele>
        <time>2015-04-27T14:12:57Z</time>
      </trkpt>
      <trkpt lat="48.57219" lon="-2.57243">
        <ele>15.52</ele>
        <time>2015-04-27T14:13:09Z</time>
      </trkpt>
      <trkpt lat="48.57239" lon="-2.57223">
        <ele>15.52</ele>
        <time>2015-04-27T14:13:30Z</time>
      </trkpt>
      <trkpt lat="48.57243" lon="-2.57221">
        <ele>16</ele>
        <time>2015-04-27T14:13:33Z</time>
      </trkpt>
      <trkpt lat="48.57249" lon="-2.57214">
        <ele>15.52</ele>
        <time>2015-04-27T14:13:39Z</time>
      </trkpt>
      <trkpt lat="48.57272" lon="-2.57193">
        <ele>15.52</ele>
        <time>2015-04-27T14:14:03Z</time>
      </trkpt>
      <trkpt lat="48.57274" lon="-2.57191">
        <ele>15.52</ele>
        <time>2015-04-27T14:14:05Z</time>
      </trkpt>
      <trkpt lat="48.57278" lon="-2.57186">
        <ele>12.63</ele>
        <time>2015-04-27T14:14:18Z</time>
      </trkpt>
      <trkpt lat="48.57278" lon="-2.57186">
        <ele>15.52</ele>
        <time>2015-04-27T14:14:19Z</time>
      </trkpt>
      <trkpt lat="48.57278" lon="-2.57186">
        <ele>15.52</ele>
        <time>2015-04-27T14:14:20Z</time>
      </trkpt>
      <trkpt lat="48.57284" lon="-2.57182">
        <ele>16</ele>
        <time>2015-04-27T14:14:47Z</time>
      </trkpt>
      <trkpt lat="48.57298" lon="-2.57168">
        <ele>16.48</ele>
        <time>2015-04-27T14:15:01Z</time>
      </trkpt>
      <trkpt lat="48.57319" lon="-2.57149">
        <ele>17.44</ele>
        <time>2015-04-27T14:15:22Z</time>
      </trkpt>
      <trkpt lat="48.57332" lon="-2.5714">
        <ele>18.4</ele>
        <time>2015-04-27T14:15:34Z</time>
      </trkpt>
      <trkpt lat="48.57334" lon="-2.57138">
        <ele>18.4</ele>
        <time>2015-04-27T14:15:36Z</time>
      </trkpt>
      <trkpt lat="48.57346" lon="-2.57129">
        <ele>19.36</ele>
        <time>2015-04-27T14:15:49Z</time>
      </trkpt>
      <trkpt lat="48.57353" lon="-2.57124">
        <ele>19.84</ele>
        <time>2015-04-27T14:15:56Z</time>
      </trkpt>
      <trkpt lat="48.57356" lon="-2.57119">
        <ele>20.81</ele>
        <time>2015-04-27T14:16:00Z</time>
      </trkpt>
      <trkpt lat="48.57357" lon="-2.57083">
        <ele>19.36</ele>
        <time>2015-04-27T14:16:20Z</time>
      </trkpt>
      <trkpt lat="48.57355" lon="-2.57069">
        <ele>17.92</ele>
        <time>2015-04-27T14:16:29Z</time>
      </trkpt>
      <trkpt lat="48.57353" lon="-2.57052">
        <ele>16.48</ele>
        <time>2015-04-27T14:16:50Z</time>
      </trkpt>
      <trkpt lat="48.57349" lon="-2.57033">
        <ele>14.56</ele>
        <time>2015-04-27T14:17:08Z</time>
      </trkpt>
      <trkpt lat="48.57343" lon="-2.57003">
        <ele>13.12</ele>
        <time>2015-04-27T14:17:26Z</time>
      </trkpt>
      <trkpt lat="48.57335" lon="-2.5698">
        <ele>11.67</ele>
        <time>2015-04-27T14:17:47Z</time>
      </trkpt>
      <trkpt lat="48.57328" lon="-2.56964">
        <ele>11.19</ele>
        <time>2015-04-27T14:18:10Z</time>
      </trkpt>
      <trkpt lat="48.57324" lon="-2.56936">
        <ele>9.75</ele>
        <time>2015-04-27T14:18:29Z</time>
      </trkpt>
      <trkpt lat="48.57328" lon="-2.56931">
        <ele>9.27</ele>
        <time>2015-04-27T14:18:36Z</time>
      </trkpt>
      <trkpt lat="48.57343" lon="-2.56905">
        <ele>9.27</ele>
        <time>2015-04-27T14:18:57Z</time>
      </trkpt>
      <trkpt lat="48.57347" lon="-2.569">
        <ele>9.27</ele>
        <time>2015-04-27T14:19:06Z</time>
      </trkpt>
      <trkpt lat="48.57354" lon="-2.5689">
        <ele>8.79</ele>
        <time>2015-04-27T14:19:15Z</time>
      </trkpt>
      <trkpt lat="48.57365" lon="-2.56875">
        <ele>3.02</ele>
        <time>2015-04-27T14:19:28Z</time>
      </trkpt>
      <trkpt lat="48.57365" lon="-2.56874">
        <ele>9.75</ele>
        <time>2015-04-27T14:19:29Z</time>
      </trkpt>
      <trkpt lat="48.57366" lon="-2.56873">
        <ele>13.6</ele>
        <time>2015-04-27T14:19:30Z</time>
      </trkpt>
      <trkpt lat="48.57366" lon="-2.56872">
        <ele>9.27</ele>
        <time>2015-04-27T14:19:31Z</time>
      </trkpt>
      <trkpt lat="48.57371" lon="-2.56863">
        <ele>11.19</ele>
        <time>2015-04-27T14:19:39Z</time>
      </trkpt>
      <trkpt lat="48.57373" lon="-2.56861">
        <ele>8.79</ele>
        <time>2015-04-27T14:19:41Z</time>
      </trkpt>
      <trkpt lat="48.57379" lon="-2.56846">
        <ele>8.31</ele>
        <time>2015-04-27T14:19:52Z</time>
      </trkpt>
      <trkpt lat="48.57382" lon="-2.56837">
        <ele>8.31</ele>
        <time>2015-04-27T14:19:57Z</time>
      </trkpt>
      <trkpt lat="48.57386" lon="-2.56826">
        <ele>8.79</ele>
        <time>2015-04-27T14:20:04Z</time>
      </trkpt>
      <trkpt lat="48.57387" lon="-2.56822">
        <ele>8.79</ele>
        <time>2015-04-27T14:20:06Z</time>
      </trkpt>
      <trkpt lat="48.57407" lon="-2.568">
        <ele>7.83</ele>
        <time>2015-04-27T14:20:28Z</time>
      </trkpt>
      <trkpt lat="48.57409" lon="-2.56798">
        <ele>7.83</ele>
        <time>2015-04-27T14:20:31Z</time>
      </trkpt>
      <trkpt lat="48.57416" lon="-2.56792">
        <ele>7.35</ele>
        <time>2015-04-27T14:20:38Z</time>
      </trkpt>
      <trkpt lat="48.57422" lon="-2.56788">
        <ele>6.87</ele>
        <time>2015-04-27T14:20:43Z</time>
      </trkpt>
      <trkpt lat="48.57437" lon="-2.56775">
        <ele>6.87</ele>
        <time>2015-04-27T14:21:01Z</time>
      </trkpt>
      <trkpt lat="48.57444" lon="-2.56768">
        <ele>6.87</ele>
        <time>2015-04-27T14:21:07Z</time>
      </trkpt>
      <trkpt lat="48.57449" lon="-2.56766">
        <ele>7.35</ele>
        <time>2015-04-27T14:21:11Z</time>
      </trkpt>
      <trkpt lat="48.5747" lon="-2.56753">
        <ele>5.91</ele>
        <time>2015-04-27T14:21:29Z</time>
      </trkpt>
    </trkseg>
  </trk>
</gpx>